<?xml version="1.0" encoding="UTF-8" standalone="no" ?>
<gpx xmlns="http://www.topografix.com/GPX/1/1" xmlns:xsi="http://www.w3.org/2001/XMLSchema-instance" xsi:schemaLocation="http://www.topografix.com/GPX/1/1 http://www.topografix.com/GPX/1/1/gpx.xsd" version="1.1" creator="VisuGPX - https://www.visugpx.com">
  <metadata>
    <name>Pays d'Auge 30/08/2022</name>
  </metadata>
  <trk>
    <name><![CDATA[30/08/2022 15:01:55]]></name>
    <trkseg>
      <trkpt lat="49.27282" lon="0.056">
        <ele>95.400001525879</ele>
        <time>2022-08-30T13:01:55Z</time>
      </trkpt>
      <trkpt lat="49.27282" lon="0.056">
        <ele>95.400001525879</ele>
        <time>2022-08-30T13:01:56Z</time>
      </trkpt>
      <trkpt lat="49.27286" lon="0.05604">
        <ele>95.400001525879</ele>
        <time>2022-08-30T13:02:02Z</time>
      </trkpt>
      <trkpt lat="49.27291" lon="0.05609">
        <ele>95</ele>
        <time>2022-08-30T13:02:06Z</time>
      </trkpt>
      <trkpt lat="49.27306" lon="0.05625">
        <ele>94.800003051758</ele>
        <time>2022-08-30T13:02:22Z</time>
      </trkpt>
      <trkpt lat="49.27324" lon="0.05643">
        <ele>94.400001525879</ele>
        <time>2022-08-30T13:02:43Z</time>
      </trkpt>
      <trkpt lat="49.27362" lon="0.05626">
        <ele>93.800003051758</ele>
        <time>2022-08-30T13:03:11Z</time>
      </trkpt>
      <trkpt lat="49.27384" lon="0.05622">
        <ele>93.800003051758</ele>
        <time>2022-08-30T13:03:23Z</time>
      </trkpt>
      <trkpt lat="49.27393" lon="0.05623">
        <ele>93.599998474121</ele>
        <time>2022-08-30T13:03:27Z</time>
      </trkpt>
      <trkpt lat="49.27417" lon="0.05622">
        <ele>93.400001525879</ele>
        <time>2022-08-30T13:03:38Z</time>
      </trkpt>
      <trkpt lat="49.27428" lon="0.05623">
        <ele>93.199996948242</ele>
        <time>2022-08-30T13:03:42Z</time>
      </trkpt>
      <trkpt lat="49.27431" lon="0.05623">
        <ele>93.199996948242</ele>
        <time>2022-08-30T13:03:43Z</time>
      </trkpt>
      <trkpt lat="49.27433" lon="0.05624">
        <ele>93.199996948242</ele>
        <time>2022-08-30T13:03:44Z</time>
      </trkpt>
      <trkpt lat="49.27454" lon="0.05633">
        <ele>93</ele>
        <time>2022-08-30T13:03:59Z</time>
      </trkpt>
      <trkpt lat="49.27477" lon="0.05674">
        <ele>92</ele>
        <time>2022-08-30T13:04:24Z</time>
      </trkpt>
      <trkpt lat="49.27499" lon="0.05707">
        <ele>90.800003051758</ele>
        <time>2022-08-30T13:04:50Z</time>
      </trkpt>
      <trkpt lat="49.27513" lon="0.05731">
        <ele>90.599998474121</ele>
        <time>2022-08-30T13:05:06Z</time>
      </trkpt>
      <trkpt lat="49.27516" lon="0.05739">
        <ele>90.599998474121</ele>
        <time>2022-08-30T13:05:10Z</time>
      </trkpt>
      <trkpt lat="49.27537" lon="0.05775">
        <ele>90.400001525879</ele>
        <time>2022-08-30T13:05:29Z</time>
      </trkpt>
      <trkpt lat="49.27538" lon="0.05777">
        <ele>90.400001525879</ele>
        <time>2022-08-30T13:05:30Z</time>
      </trkpt>
      <trkpt lat="49.27558" lon="0.05812">
        <ele>89.599998474121</ele>
        <time>2022-08-30T13:05:52Z</time>
      </trkpt>
      <trkpt lat="49.27573" lon="0.05845">
        <ele>88</ele>
        <time>2022-08-30T13:06:09Z</time>
      </trkpt>
      <trkpt lat="49.27573" lon="0.05847">
        <ele>88</ele>
        <time>2022-08-30T13:06:10Z</time>
      </trkpt>
      <trkpt lat="49.27574" lon="0.05849">
        <ele>88</ele>
        <time>2022-08-30T13:06:11Z</time>
      </trkpt>
      <trkpt lat="49.27575" lon="0.05851">
        <ele>88</ele>
        <time>2022-08-30T13:06:12Z</time>
      </trkpt>
      <trkpt lat="49.27576" lon="0.05854">
        <ele>88</ele>
        <time>2022-08-30T13:06:13Z</time>
      </trkpt>
      <trkpt lat="49.27577" lon="0.05857">
        <ele>88</ele>
        <time>2022-08-30T13:06:14Z</time>
      </trkpt>
      <trkpt lat="49.27577" lon="0.0586">
        <ele>88</ele>
        <time>2022-08-30T13:06:15Z</time>
      </trkpt>
      <trkpt lat="49.27581" lon="0.0587">
        <ele>88.400001525879</ele>
        <time>2022-08-30T13:06:24Z</time>
      </trkpt>
      <trkpt lat="49.27583" lon="0.05875">
        <ele>88.400001525879</ele>
        <time>2022-08-30T13:06:26Z</time>
      </trkpt>
      <trkpt lat="49.27583" lon="0.05877">
        <ele>88.400001525879</ele>
        <time>2022-08-30T13:06:27Z</time>
      </trkpt>
      <trkpt lat="49.27584" lon="0.05879">
        <ele>88.400001525879</ele>
        <time>2022-08-30T13:06:28Z</time>
      </trkpt>
      <trkpt lat="49.27586" lon="0.0589">
        <ele>88.199996948242</ele>
        <time>2022-08-30T13:06:36Z</time>
      </trkpt>
      <trkpt lat="49.27587" lon="0.05891">
        <ele>88.199996948242</ele>
        <time>2022-08-30T13:06:37Z</time>
      </trkpt>
      <trkpt lat="49.27588" lon="0.05893">
        <ele>88</ele>
        <time>2022-08-30T13:06:38Z</time>
      </trkpt>
      <trkpt lat="49.27588" lon="0.05896">
        <ele>88</ele>
        <time>2022-08-30T13:06:39Z</time>
      </trkpt>
      <trkpt lat="49.27589" lon="0.05898">
        <ele>88</ele>
        <time>2022-08-30T13:06:40Z</time>
      </trkpt>
      <trkpt lat="49.27589" lon="0.05901">
        <ele>88</ele>
        <time>2022-08-30T13:06:41Z</time>
      </trkpt>
      <trkpt lat="49.27589" lon="0.05903">
        <ele>87.800003051758</ele>
        <time>2022-08-30T13:06:42Z</time>
      </trkpt>
      <trkpt lat="49.2759" lon="0.05908">
        <ele>87.800003051758</ele>
        <time>2022-08-30T13:06:44Z</time>
      </trkpt>
      <trkpt lat="49.27599" lon="0.05921">
        <ele>87.400001525879</ele>
        <time>2022-08-30T13:06:56Z</time>
      </trkpt>
      <trkpt lat="49.27607" lon="0.05936">
        <ele>87.199996948242</ele>
        <time>2022-08-30T13:07:05Z</time>
      </trkpt>
      <trkpt lat="49.27617" lon="0.05958">
        <ele>87</ele>
        <time>2022-08-30T13:07:18Z</time>
      </trkpt>
      <trkpt lat="49.27629" lon="0.05974">
        <ele>86.599998474121</ele>
        <time>2022-08-30T13:07:33Z</time>
      </trkpt>
      <trkpt lat="49.27632" lon="0.05978">
        <ele>86.599998474121</ele>
        <time>2022-08-30T13:07:39Z</time>
      </trkpt>
      <trkpt lat="49.27637" lon="0.05986">
        <ele>86.400001525879</ele>
        <time>2022-08-30T13:07:45Z</time>
      </trkpt>
      <trkpt lat="49.27639" lon="0.05991">
        <ele>86.199996948242</ele>
        <time>2022-08-30T13:07:48Z</time>
      </trkpt>
      <trkpt lat="49.2764" lon="0.05993">
        <ele>86.199996948242</ele>
        <time>2022-08-30T13:07:49Z</time>
      </trkpt>
      <trkpt lat="49.27641" lon="0.05998">
        <ele>86.199996948242</ele>
        <time>2022-08-30T13:07:52Z</time>
      </trkpt>
      <trkpt lat="49.27643" lon="0.06004">
        <ele>86</ele>
        <time>2022-08-30T13:07:57Z</time>
      </trkpt>
      <trkpt lat="49.27644" lon="0.06005">
        <ele>85.800003051758</ele>
        <time>2022-08-30T13:07:58Z</time>
      </trkpt>
      <trkpt lat="49.27645" lon="0.06007">
        <ele>85.800003051758</ele>
        <time>2022-08-30T13:07:59Z</time>
      </trkpt>
      <trkpt lat="49.27662" lon="0.06028">
        <ele>85.199996948242</ele>
        <time>2022-08-30T13:08:12Z</time>
      </trkpt>
      <trkpt lat="49.27667" lon="0.06041">
        <ele>84.800003051758</ele>
        <time>2022-08-30T13:08:19Z</time>
      </trkpt>
      <trkpt lat="49.27668" lon="0.06043">
        <ele>84.800003051758</ele>
        <time>2022-08-30T13:08:20Z</time>
      </trkpt>
      <trkpt lat="49.2767" lon="0.06045">
        <ele>84.599998474121</ele>
        <time>2022-08-30T13:08:21Z</time>
      </trkpt>
      <trkpt lat="49.27672" lon="0.06047">
        <ele>84.599998474121</ele>
        <time>2022-08-30T13:08:22Z</time>
      </trkpt>
      <trkpt lat="49.27673" lon="0.06048">
        <ele>84.400001525879</ele>
        <time>2022-08-30T13:08:23Z</time>
      </trkpt>
      <trkpt lat="49.27675" lon="0.06051">
        <ele>84.400001525879</ele>
        <time>2022-08-30T13:08:25Z</time>
      </trkpt>
      <trkpt lat="49.27676" lon="0.06052">
        <ele>84.400001525879</ele>
        <time>2022-08-30T13:08:26Z</time>
      </trkpt>
      <trkpt lat="49.27676" lon="0.06053">
        <ele>84.400001525879</ele>
        <time>2022-08-30T13:08:27Z</time>
      </trkpt>
      <trkpt lat="49.27677" lon="0.06055">
        <ele>84.199996948242</ele>
        <time>2022-08-30T13:08:28Z</time>
      </trkpt>
      <trkpt lat="49.27677" lon="0.06056">
        <ele>84.199996948242</ele>
        <time>2022-08-30T13:08:29Z</time>
      </trkpt>
      <trkpt lat="49.27678" lon="0.06058">
        <ele>84</ele>
        <time>2022-08-30T13:08:30Z</time>
      </trkpt>
      <trkpt lat="49.27693" lon="0.06085">
        <ele>83.199996948242</ele>
        <time>2022-08-30T13:08:52Z</time>
      </trkpt>
      <trkpt lat="49.27701" lon="0.06095">
        <ele>82.800003051758</ele>
        <time>2022-08-30T13:09:01Z</time>
      </trkpt>
      <trkpt lat="49.2771" lon="0.06107">
        <ele>82.199996948242</ele>
        <time>2022-08-30T13:09:12Z</time>
      </trkpt>
      <trkpt lat="49.27719" lon="0.06123">
        <ele>81.599998474121</ele>
        <time>2022-08-30T13:09:24Z</time>
      </trkpt>
      <trkpt lat="49.27719" lon="0.06124">
        <ele>81.599998474121</ele>
        <time>2022-08-30T13:09:25Z</time>
      </trkpt>
      <trkpt lat="49.2773" lon="0.06145">
        <ele>80.199996948242</ele>
        <time>2022-08-30T13:09:39Z</time>
      </trkpt>
      <trkpt lat="49.27744" lon="0.06161">
        <ele>79</ele>
        <time>2022-08-30T13:09:52Z</time>
      </trkpt>
      <trkpt lat="49.27757" lon="0.06173">
        <ele>77.400001525879</ele>
        <time>2022-08-30T13:10:05Z</time>
      </trkpt>
      <trkpt lat="49.2777" lon="0.06183">
        <ele>77</ele>
        <time>2022-08-30T13:10:13Z</time>
      </trkpt>
      <trkpt lat="49.27785" lon="0.06199">
        <ele>75</ele>
        <time>2022-08-30T13:10:30Z</time>
      </trkpt>
      <trkpt lat="49.27807" lon="0.06214">
        <ele>73.199996948242</ele>
        <time>2022-08-30T13:10:50Z</time>
      </trkpt>
      <trkpt lat="49.27827" lon="0.06217">
        <ele>71</ele>
        <time>2022-08-30T13:11:09Z</time>
      </trkpt>
      <trkpt lat="49.27839" lon="0.06217">
        <ele>69.199996948242</ele>
        <time>2022-08-30T13:11:24Z</time>
      </trkpt>
      <trkpt lat="49.2785" lon="0.0622">
        <ele>68.199996948242</ele>
        <time>2022-08-30T13:11:36Z</time>
      </trkpt>
      <trkpt lat="49.27878" lon="0.06222">
        <ele>65.199996948242</ele>
        <time>2022-08-30T13:12:00Z</time>
      </trkpt>
      <trkpt lat="49.27891" lon="0.06228">
        <ele>63.400001525879</ele>
        <time>2022-08-30T13:12:15Z</time>
      </trkpt>
      <trkpt lat="49.27892" lon="0.06228">
        <ele>63.400001525879</ele>
        <time>2022-08-30T13:12:16Z</time>
      </trkpt>
      <trkpt lat="49.27915" lon="0.06224">
        <ele>60.200000762939</ele>
        <time>2022-08-30T13:12:35Z</time>
      </trkpt>
      <trkpt lat="49.27924" lon="0.0622">
        <ele>58</ele>
        <time>2022-08-30T13:12:47Z</time>
      </trkpt>
      <trkpt lat="49.27941" lon="0.06211">
        <ele>54.799999237061</ele>
        <time>2022-08-30T13:13:05Z</time>
      </trkpt>
      <trkpt lat="49.27951" lon="0.06211">
        <ele>53.599998474121</ele>
        <time>2022-08-30T13:13:21Z</time>
      </trkpt>
      <trkpt lat="49.27952" lon="0.06211">
        <ele>53.599998474121</ele>
        <time>2022-08-30T13:13:22Z</time>
      </trkpt>
      <trkpt lat="49.2798" lon="0.06226">
        <ele>51</ele>
        <time>2022-08-30T13:13:44Z</time>
      </trkpt>
      <trkpt lat="49.27984" lon="0.0623">
        <ele>50.599998474121</ele>
        <time>2022-08-30T13:13:49Z</time>
      </trkpt>
      <trkpt lat="49.27981" lon="0.06238">
        <ele>49.200000762939</ele>
        <time>2022-08-30T13:14:02Z</time>
      </trkpt>
      <trkpt lat="49.27962" lon="0.06251">
        <ele>48.400001525879</ele>
        <time>2022-08-30T13:14:23Z</time>
      </trkpt>
      <trkpt lat="49.27949" lon="0.06262">
        <ele>47.799999237061</ele>
        <time>2022-08-30T13:14:37Z</time>
      </trkpt>
      <trkpt lat="49.27935" lon="0.06277">
        <ele>47.799999237061</ele>
        <time>2022-08-30T13:14:56Z</time>
      </trkpt>
      <trkpt lat="49.27926" lon="0.06309">
        <ele>46.200000762939</ele>
        <time>2022-08-30T13:15:21Z</time>
      </trkpt>
      <trkpt lat="49.2793" lon="0.06328">
        <ele>44.599998474121</ele>
        <time>2022-08-30T13:15:45Z</time>
      </trkpt>
      <trkpt lat="49.27934" lon="0.06334">
        <ele>43.799999237061</ele>
        <time>2022-08-30T13:16:10Z</time>
      </trkpt>
      <trkpt lat="49.27937" lon="0.0634">
        <ele>44</ele>
        <time>2022-08-30T13:16:45Z</time>
      </trkpt>
      <trkpt lat="49.27955" lon="0.06352">
        <ele>43.799999237061</ele>
        <time>2022-08-30T13:17:06Z</time>
      </trkpt>
      <trkpt lat="49.27981" lon="0.06367">
        <ele>46.799999237061</ele>
        <time>2022-08-30T13:17:30Z</time>
      </trkpt>
      <trkpt lat="49.27996" lon="0.06376">
        <ele>47.799999237061</ele>
        <time>2022-08-30T13:17:47Z</time>
      </trkpt>
      <trkpt lat="49.28023" lon="0.06386">
        <ele>48.799999237061</ele>
        <time>2022-08-30T13:18:11Z</time>
      </trkpt>
      <trkpt lat="49.2804" lon="0.06396">
        <ele>49.599998474121</ele>
        <time>2022-08-30T13:18:28Z</time>
      </trkpt>
      <trkpt lat="49.28053" lon="0.06416">
        <ele>51.599998474121</ele>
        <time>2022-08-30T13:18:51Z</time>
      </trkpt>
      <trkpt lat="49.28048" lon="0.06426">
        <ele>52.200000762939</ele>
        <time>2022-08-30T13:19:04Z</time>
      </trkpt>
      <trkpt lat="49.28037" lon="0.06439">
        <ele>54.400001525879</ele>
        <time>2022-08-30T13:19:19Z</time>
      </trkpt>
      <trkpt lat="49.28022" lon="0.06454">
        <ele>57.599998474121</ele>
        <time>2022-08-30T13:19:35Z</time>
      </trkpt>
      <trkpt lat="49.28008" lon="0.06466">
        <ele>59.799999237061</ele>
        <time>2022-08-30T13:19:52Z</time>
      </trkpt>
      <trkpt lat="49.28004" lon="0.06469">
        <ele>60.200000762939</ele>
        <time>2022-08-30T13:19:56Z</time>
      </trkpt>
      <trkpt lat="49.27986" lon="0.06487">
        <ele>63.599998474121</ele>
        <time>2022-08-30T13:20:19Z</time>
      </trkpt>
      <trkpt lat="49.27981" lon="0.06492">
        <ele>64.400001525879</ele>
        <time>2022-08-30T13:20:25Z</time>
      </trkpt>
      <trkpt lat="49.2797" lon="0.06506">
        <ele>65.800003051758</ele>
        <time>2022-08-30T13:20:38Z</time>
      </trkpt>
      <trkpt lat="49.27967" lon="0.06508">
        <ele>66</ele>
        <time>2022-08-30T13:20:41Z</time>
      </trkpt>
      <trkpt lat="49.27962" lon="0.06514">
        <ele>67</ele>
        <time>2022-08-30T13:20:47Z</time>
      </trkpt>
      <trkpt lat="49.2796" lon="0.06516">
        <ele>67.599998474121</ele>
        <time>2022-08-30T13:20:49Z</time>
      </trkpt>
      <trkpt lat="49.2795" lon="0.06523">
        <ele>69.199996948242</ele>
        <time>2022-08-30T13:21:02Z</time>
      </trkpt>
      <trkpt lat="49.27948" lon="0.06524">
        <ele>69.400001525879</ele>
        <time>2022-08-30T13:21:04Z</time>
      </trkpt>
      <trkpt lat="49.27938" lon="0.06532">
        <ele>70.199996948242</ele>
        <time>2022-08-30T13:21:15Z</time>
      </trkpt>
      <trkpt lat="49.27927" lon="0.06545">
        <ele>71.599998474121</ele>
        <time>2022-08-30T13:21:28Z</time>
      </trkpt>
      <trkpt lat="49.27914" lon="0.06561">
        <ele>73.199996948242</ele>
        <time>2022-08-30T13:21:46Z</time>
      </trkpt>
      <trkpt lat="49.27902" lon="0.06572">
        <ele>73.599998474121</ele>
        <time>2022-08-30T13:21:58Z</time>
      </trkpt>
      <trkpt lat="49.27877" lon="0.06599">
        <ele>75.400001525879</ele>
        <time>2022-08-30T13:22:17Z</time>
      </trkpt>
      <trkpt lat="49.27853" lon="0.0662">
        <ele>77.400001525879</ele>
        <time>2022-08-30T13:22:45Z</time>
      </trkpt>
      <trkpt lat="49.27837" lon="0.06635">
        <ele>78.199996948242</ele>
        <time>2022-08-30T13:23:03Z</time>
      </trkpt>
      <trkpt lat="49.27817" lon="0.06668">
        <ele>78.599998474121</ele>
        <time>2022-08-30T13:23:24Z</time>
      </trkpt>
      <trkpt lat="49.2782" lon="0.06673">
        <ele>78.800003051758</ele>
        <time>2022-08-30T13:23:33Z</time>
      </trkpt>
      <trkpt lat="49.27839" lon="0.06683">
        <ele>79</ele>
        <time>2022-08-30T13:23:54Z</time>
      </trkpt>
      <trkpt lat="49.2786" lon="0.067">
        <ele>78.800003051758</ele>
        <time>2022-08-30T13:24:15Z</time>
      </trkpt>
      <trkpt lat="49.27882" lon="0.06717">
        <ele>78.599998474121</ele>
        <time>2022-08-30T13:24:39Z</time>
      </trkpt>
      <trkpt lat="49.2791" lon="0.06718">
        <ele>78.199996948242</ele>
        <time>2022-08-30T13:25:04Z</time>
      </trkpt>
      <trkpt lat="49.27912" lon="0.06718">
        <ele>78.199996948242</ele>
        <time>2022-08-30T13:25:06Z</time>
      </trkpt>
      <trkpt lat="49.27942" lon="0.0672">
        <ele>78</ele>
        <time>2022-08-30T13:25:27Z</time>
      </trkpt>
      <trkpt lat="49.27968" lon="0.06729">
        <ele>77.400001525879</ele>
        <time>2022-08-30T13:25:50Z</time>
      </trkpt>
      <trkpt lat="49.27976" lon="0.06735">
        <ele>76.800003051758</ele>
        <time>2022-08-30T13:25:57Z</time>
      </trkpt>
      <trkpt lat="49.28002" lon="0.06761">
        <ele>75.400001525879</ele>
        <time>2022-08-30T13:26:22Z</time>
      </trkpt>
      <trkpt lat="49.28022" lon="0.06793">
        <ele>74.199996948242</ele>
        <time>2022-08-30T13:26:43Z</time>
      </trkpt>
      <trkpt lat="49.28035" lon="0.06815">
        <ele>73</ele>
        <time>2022-08-30T13:27:00Z</time>
      </trkpt>
      <trkpt lat="49.28038" lon="0.06821">
        <ele>72.599998474121</ele>
        <time>2022-08-30T13:27:04Z</time>
      </trkpt>
      <trkpt lat="49.2805" lon="0.0684">
        <ele>71.800003051758</ele>
        <time>2022-08-30T13:27:19Z</time>
      </trkpt>
      <trkpt lat="49.28062" lon="0.06858">
        <ele>70.199996948242</ele>
        <time>2022-08-30T13:27:33Z</time>
      </trkpt>
      <trkpt lat="49.28076" lon="0.06873">
        <ele>69.199996948242</ele>
        <time>2022-08-30T13:27:48Z</time>
      </trkpt>
      <trkpt lat="49.2808" lon="0.06879">
        <ele>68.800003051758</ele>
        <time>2022-08-30T13:27:54Z</time>
      </trkpt>
      <trkpt lat="49.28095" lon="0.06895">
        <ele>66.800003051758</ele>
        <time>2022-08-30T13:28:10Z</time>
      </trkpt>
      <trkpt lat="49.28111" lon="0.06922">
        <ele>64</ele>
        <time>2022-08-30T13:28:31Z</time>
      </trkpt>
      <trkpt lat="49.28115" lon="0.0693">
        <ele>62.799999237061</ele>
        <time>2022-08-30T13:28:41Z</time>
      </trkpt>
      <trkpt lat="49.28119" lon="0.06941">
        <ele>61.599998474121</ele>
        <time>2022-08-30T13:28:59Z</time>
      </trkpt>
      <trkpt lat="49.28131" lon="0.06951">
        <ele>60.400001525879</ele>
        <time>2022-08-30T13:29:14Z</time>
      </trkpt>
      <trkpt lat="49.28137" lon="0.06959">
        <ele>59.200000762939</ele>
        <time>2022-08-30T13:29:24Z</time>
      </trkpt>
      <trkpt lat="49.28147" lon="0.06969">
        <ele>56.599998474121</ele>
        <time>2022-08-30T13:29:38Z</time>
      </trkpt>
      <trkpt lat="49.28162" lon="0.06983">
        <ele>53.599998474121</ele>
        <time>2022-08-30T13:29:56Z</time>
      </trkpt>
      <trkpt lat="49.28168" lon="0.06995">
        <ele>51</ele>
        <time>2022-08-30T13:30:10Z</time>
      </trkpt>
      <trkpt lat="49.28176" lon="0.07004">
        <ele>49.200000762939</ele>
        <time>2022-08-30T13:30:19Z</time>
      </trkpt>
      <trkpt lat="49.28181" lon="0.0701">
        <ele>47.599998474121</ele>
        <time>2022-08-30T13:30:26Z</time>
      </trkpt>
      <trkpt lat="49.28193" lon="0.07024">
        <ele>44.200000762939</ele>
        <time>2022-08-30T13:30:42Z</time>
      </trkpt>
      <trkpt lat="49.28194" lon="0.07027">
        <ele>43.799999237061</ele>
        <time>2022-08-30T13:30:44Z</time>
      </trkpt>
      <trkpt lat="49.28199" lon="0.07033">
        <ele>43.200000762939</ele>
        <time>2022-08-30T13:30:49Z</time>
      </trkpt>
      <trkpt lat="49.28201" lon="0.07035">
        <ele>42.599998474121</ele>
        <time>2022-08-30T13:30:51Z</time>
      </trkpt>
      <trkpt lat="49.28224" lon="0.07055">
        <ele>40.200000762939</ele>
        <time>2022-08-30T13:31:05Z</time>
      </trkpt>
      <trkpt lat="49.28221" lon="0.07074">
        <ele>38</ele>
        <time>2022-08-30T13:31:22Z</time>
      </trkpt>
      <trkpt lat="49.28216" lon="0.07083">
        <ele>38.200000762939</ele>
        <time>2022-08-30T13:31:30Z</time>
      </trkpt>
      <trkpt lat="49.28207" lon="0.07096">
        <ele>39</ele>
        <time>2022-08-30T13:31:43Z</time>
      </trkpt>
      <trkpt lat="49.28203" lon="0.07087">
        <ele>39.400001525879</ele>
        <time>2022-08-30T13:32:05Z</time>
      </trkpt>
      <trkpt lat="49.28194" lon="0.07108">
        <ele>39</ele>
        <time>2022-08-30T13:32:24Z</time>
      </trkpt>
      <trkpt lat="49.28185" lon="0.07127">
        <ele>37.599998474121</ele>
        <time>2022-08-30T13:32:43Z</time>
      </trkpt>
      <trkpt lat="49.28164" lon="0.07146">
        <ele>36.200000762939</ele>
        <time>2022-08-30T13:33:07Z</time>
      </trkpt>
      <trkpt lat="49.28139" lon="0.07156">
        <ele>36</ele>
        <time>2022-08-30T13:33:26Z</time>
      </trkpt>
      <trkpt lat="49.28113" lon="0.07172">
        <ele>35.400001525879</ele>
        <time>2022-08-30T13:33:49Z</time>
      </trkpt>
      <trkpt lat="49.28089" lon="0.07191">
        <ele>34.400001525879</ele>
        <time>2022-08-30T13:34:08Z</time>
      </trkpt>
      <trkpt lat="49.28079" lon="0.07201">
        <ele>34</ele>
        <time>2022-08-30T13:34:18Z</time>
      </trkpt>
      <trkpt lat="49.28066" lon="0.07216">
        <ele>33</ele>
        <time>2022-08-30T13:34:32Z</time>
      </trkpt>
      <trkpt lat="49.28061" lon="0.07221">
        <ele>32.599998474121</ele>
        <time>2022-08-30T13:34:36Z</time>
      </trkpt>
      <trkpt lat="49.28046" lon="0.07235">
        <ele>32</ele>
        <time>2022-08-30T13:34:50Z</time>
      </trkpt>
      <trkpt lat="49.28032" lon="0.07246">
        <ele>31</ele>
        <time>2022-08-30T13:35:03Z</time>
      </trkpt>
      <trkpt lat="49.28011" lon="0.07265">
        <ele>29.200000762939</ele>
        <time>2022-08-30T13:35:26Z</time>
      </trkpt>
      <trkpt lat="49.28004" lon="0.07268">
        <ele>28.799999237061</ele>
        <time>2022-08-30T13:35:31Z</time>
      </trkpt>
      <trkpt lat="49.27976" lon="0.07285">
        <ele>25.60000038147</ele>
        <time>2022-08-30T13:35:57Z</time>
      </trkpt>
      <trkpt lat="49.27963" lon="0.07297">
        <ele>24.799999237061</ele>
        <time>2022-08-30T13:36:10Z</time>
      </trkpt>
      <trkpt lat="49.27954" lon="0.07316">
        <ele>25</ele>
        <time>2022-08-30T13:36:24Z</time>
      </trkpt>
      <trkpt lat="49.27935" lon="0.07332">
        <ele>26.799999237061</ele>
        <time>2022-08-30T13:36:42Z</time>
      </trkpt>
      <trkpt lat="49.27917" lon="0.07338">
        <ele>30</ele>
        <time>2022-08-30T13:37:08Z</time>
      </trkpt>
      <trkpt lat="49.27907" lon="0.07355">
        <ele>31.39999961853</ele>
        <time>2022-08-30T13:37:26Z</time>
      </trkpt>
      <trkpt lat="49.27897" lon="0.07371">
        <ele>33</ele>
        <time>2022-08-30T13:37:42Z</time>
      </trkpt>
      <trkpt lat="49.27888" lon="0.07385">
        <ele>34.799999237061</ele>
        <time>2022-08-30T13:37:57Z</time>
      </trkpt>
      <trkpt lat="49.27882" lon="0.07393">
        <ele>35.799999237061</ele>
        <time>2022-08-30T13:38:07Z</time>
      </trkpt>
      <trkpt lat="49.27864" lon="0.07417">
        <ele>38.200000762939</ele>
        <time>2022-08-30T13:38:29Z</time>
      </trkpt>
      <trkpt lat="49.27862" lon="0.0742">
        <ele>38.200000762939</ele>
        <time>2022-08-30T13:38:31Z</time>
      </trkpt>
      <trkpt lat="49.27851" lon="0.07433">
        <ele>39.599998474121</ele>
        <time>2022-08-30T13:38:45Z</time>
      </trkpt>
      <trkpt lat="49.27846" lon="0.07438">
        <ele>40</ele>
        <time>2022-08-30T13:38:51Z</time>
      </trkpt>
      <trkpt lat="49.27836" lon="0.07448">
        <ele>41</ele>
        <time>2022-08-30T13:39:03Z</time>
      </trkpt>
      <trkpt lat="49.27828" lon="0.07456">
        <ele>42.599998474121</ele>
        <time>2022-08-30T13:39:12Z</time>
      </trkpt>
      <trkpt lat="49.27817" lon="0.07467">
        <ele>43.599998474121</ele>
        <time>2022-08-30T13:39:24Z</time>
      </trkpt>
      <trkpt lat="49.27808" lon="0.07479">
        <ele>45.599998474121</ele>
        <time>2022-08-30T13:39:36Z</time>
      </trkpt>
      <trkpt lat="49.27794" lon="0.0749">
        <ele>47.400001525879</ele>
        <time>2022-08-30T13:39:51Z</time>
      </trkpt>
      <trkpt lat="49.27784" lon="0.07496">
        <ele>48.799999237061</ele>
        <time>2022-08-30T13:40:01Z</time>
      </trkpt>
      <trkpt lat="49.27775" lon="0.07502">
        <ele>50.200000762939</ele>
        <time>2022-08-30T13:40:13Z</time>
      </trkpt>
      <trkpt lat="49.27769" lon="0.07507">
        <ele>51.400001525879</ele>
        <time>2022-08-30T13:40:22Z</time>
      </trkpt>
      <trkpt lat="49.27755" lon="0.07519">
        <ele>53.400001525879</ele>
        <time>2022-08-30T13:40:38Z</time>
      </trkpt>
      <trkpt lat="49.27749" lon="0.07523">
        <ele>54.599998474121</ele>
        <time>2022-08-30T13:40:45Z</time>
      </trkpt>
      <trkpt lat="49.27741" lon="0.07527">
        <ele>55.599998474121</ele>
        <time>2022-08-30T13:40:54Z</time>
      </trkpt>
      <trkpt lat="49.27722" lon="0.07545">
        <ele>58.400001525879</ele>
        <time>2022-08-30T13:41:12Z</time>
      </trkpt>
      <trkpt lat="49.27721" lon="0.07547">
        <ele>58.599998474121</ele>
        <time>2022-08-30T13:41:14Z</time>
      </trkpt>
      <trkpt lat="49.27707" lon="0.07556">
        <ele>61</ele>
        <time>2022-08-30T13:41:31Z</time>
      </trkpt>
      <trkpt lat="49.27694" lon="0.07567">
        <ele>63.400001525879</ele>
        <time>2022-08-30T13:41:45Z</time>
      </trkpt>
      <trkpt lat="49.27688" lon="0.07568">
        <ele>64.199996948242</ele>
        <time>2022-08-30T13:41:51Z</time>
      </trkpt>
      <trkpt lat="49.27677" lon="0.07579">
        <ele>66.599998474121</ele>
        <time>2022-08-30T13:42:06Z</time>
      </trkpt>
      <trkpt lat="49.2767" lon="0.07585">
        <ele>68</ele>
        <time>2022-08-30T13:42:13Z</time>
      </trkpt>
      <trkpt lat="49.27668" lon="0.07586">
        <ele>68.400001525879</ele>
        <time>2022-08-30T13:42:15Z</time>
      </trkpt>
      <trkpt lat="49.27663" lon="0.07589">
        <ele>69</ele>
        <time>2022-08-30T13:42:20Z</time>
      </trkpt>
      <trkpt lat="49.27641" lon="0.07604">
        <ele>71.199996948242</ele>
        <time>2022-08-30T13:42:43Z</time>
      </trkpt>
      <trkpt lat="49.27637" lon="0.07609">
        <ele>71.599998474121</ele>
        <time>2022-08-30T13:42:48Z</time>
      </trkpt>
      <trkpt lat="49.27617" lon="0.07639">
        <ele>74</ele>
        <time>2022-08-30T13:43:13Z</time>
      </trkpt>
      <trkpt lat="49.27605" lon="0.07654">
        <ele>74.599998474121</ele>
        <time>2022-08-30T13:43:26Z</time>
      </trkpt>
      <trkpt lat="49.27603" lon="0.07665">
        <ele>75.199996948242</ele>
        <time>2022-08-30T13:43:45Z</time>
      </trkpt>
      <trkpt lat="49.27603" lon="0.07666">
        <ele>75.199996948242</ele>
        <time>2022-08-30T13:43:46Z</time>
      </trkpt>
      <trkpt lat="49.27597" lon="0.07672">
        <ele>75.199996948242</ele>
        <time>2022-08-30T13:43:49Z</time>
      </trkpt>
      <trkpt lat="49.27595" lon="0.07675">
        <ele>75.199996948242</ele>
        <time>2022-08-30T13:43:50Z</time>
      </trkpt>
      <trkpt lat="49.27594" lon="0.07677">
        <ele>75.199996948242</ele>
        <time>2022-08-30T13:43:51Z</time>
      </trkpt>
      <trkpt lat="49.2759" lon="0.07686">
        <ele>75.199996948242</ele>
        <time>2022-08-30T13:44:01Z</time>
      </trkpt>
      <trkpt lat="49.27587" lon="0.077">
        <ele>78.400001525879</ele>
        <time>2022-08-30T13:44:18Z</time>
      </trkpt>
      <trkpt lat="49.27586" lon="0.07695">
        <ele>78.800003051758</ele>
        <time>2022-08-30T13:44:40Z</time>
      </trkpt>
      <trkpt lat="49.27589" lon="0.07692">
        <ele>78.599998474121</ele>
        <time>2022-08-30T13:44:48Z</time>
      </trkpt>
      <trkpt lat="49.27591" lon="0.07673">
        <ele>77</ele>
        <time>2022-08-30T13:45:04Z</time>
      </trkpt>
      <trkpt lat="49.27599" lon="0.07668">
        <ele>76</ele>
        <time>2022-08-30T13:45:13Z</time>
      </trkpt>
      <trkpt lat="49.276" lon="0.07667">
        <ele>75.800003051758</ele>
        <time>2022-08-30T13:45:14Z</time>
      </trkpt>
      <trkpt lat="49.27602" lon="0.07667">
        <ele>75.800003051758</ele>
        <time>2022-08-30T13:45:15Z</time>
      </trkpt>
      <trkpt lat="49.27603" lon="0.07667">
        <ele>75.800003051758</ele>
        <time>2022-08-30T13:45:16Z</time>
      </trkpt>
      <trkpt lat="49.27623" lon="0.07667">
        <ele>74.800003051758</ele>
        <time>2022-08-30T13:45:33Z</time>
      </trkpt>
      <trkpt lat="49.27624" lon="0.07667">
        <ele>74.599998474121</ele>
        <time>2022-08-30T13:45:34Z</time>
      </trkpt>
      <trkpt lat="49.2763" lon="0.07669">
        <ele>74</ele>
        <time>2022-08-30T13:45:40Z</time>
      </trkpt>
      <trkpt lat="49.27631" lon="0.0767">
        <ele>74</ele>
        <time>2022-08-30T13:45:41Z</time>
      </trkpt>
      <trkpt lat="49.27633" lon="0.07671">
        <ele>73.800003051758</ele>
        <time>2022-08-30T13:45:42Z</time>
      </trkpt>
      <trkpt lat="49.27634" lon="0.07671">
        <ele>73.800003051758</ele>
        <time>2022-08-30T13:45:43Z</time>
      </trkpt>
      <trkpt lat="49.2765" lon="0.07679">
        <ele>72.199996948242</ele>
        <time>2022-08-30T13:45:58Z</time>
      </trkpt>
      <trkpt lat="49.27669" lon="0.07688">
        <ele>71.199996948242</ele>
        <time>2022-08-30T13:46:14Z</time>
      </trkpt>
      <trkpt lat="49.27686" lon="0.07695">
        <ele>70.400001525879</ele>
        <time>2022-08-30T13:46:30Z</time>
      </trkpt>
      <trkpt lat="49.27687" lon="0.07698">
        <ele>70.400001525879</ele>
        <time>2022-08-30T13:46:32Z</time>
      </trkpt>
      <trkpt lat="49.27692" lon="0.07698">
        <ele>69.800003051758</ele>
        <time>2022-08-30T13:46:40Z</time>
      </trkpt>
      <trkpt lat="49.27694" lon="0.07697">
        <ele>69.599998474121</ele>
        <time>2022-08-30T13:46:41Z</time>
      </trkpt>
      <trkpt lat="49.27695" lon="0.07695">
        <ele>69.400001525879</ele>
        <time>2022-08-30T13:46:42Z</time>
      </trkpt>
      <trkpt lat="49.27712" lon="0.07698">
        <ele>68.800003051758</ele>
        <time>2022-08-30T13:46:53Z</time>
      </trkpt>
      <trkpt lat="49.27733" lon="0.07706">
        <ele>67.199996948242</ele>
        <time>2022-08-30T13:47:08Z</time>
      </trkpt>
      <trkpt lat="49.27735" lon="0.07705">
        <ele>67</ele>
        <time>2022-08-30T13:47:09Z</time>
      </trkpt>
      <trkpt lat="49.27746" lon="0.07707">
        <ele>65.400001525879</ele>
        <time>2022-08-30T13:47:19Z</time>
      </trkpt>
      <trkpt lat="49.27758" lon="0.07708">
        <ele>63.799999237061</ele>
        <time>2022-08-30T13:47:32Z</time>
      </trkpt>
      <trkpt lat="49.27778" lon="0.07705">
        <ele>62</ele>
        <time>2022-08-30T13:47:48Z</time>
      </trkpt>
      <trkpt lat="49.27794" lon="0.07705">
        <ele>60.799999237061</ele>
        <time>2022-08-30T13:48:02Z</time>
      </trkpt>
      <trkpt lat="49.27797" lon="0.07713">
        <ele>60</ele>
        <time>2022-08-30T13:48:06Z</time>
      </trkpt>
      <trkpt lat="49.27798" lon="0.07715">
        <ele>60</ele>
        <time>2022-08-30T13:48:07Z</time>
      </trkpt>
      <trkpt lat="49.278" lon="0.07738">
        <ele>60</ele>
        <time>2022-08-30T13:48:19Z</time>
      </trkpt>
      <trkpt lat="49.27801" lon="0.07769">
        <ele>61.200000762939</ele>
        <time>2022-08-30T13:48:36Z</time>
      </trkpt>
      <trkpt lat="49.27802" lon="0.07775">
        <ele>61.400001525879</ele>
        <time>2022-08-30T13:48:42Z</time>
      </trkpt>
      <trkpt lat="49.27804" lon="0.07783">
        <ele>61.599998474121</ele>
        <time>2022-08-30T13:48:48Z</time>
      </trkpt>
      <trkpt lat="49.27805" lon="0.07812">
        <ele>61.599998474121</ele>
        <time>2022-08-30T13:49:05Z</time>
      </trkpt>
      <trkpt lat="49.27807" lon="0.07841">
        <ele>61.799999237061</ele>
        <time>2022-08-30T13:49:22Z</time>
      </trkpt>
      <trkpt lat="49.27807" lon="0.07881">
        <ele>62</ele>
        <time>2022-08-30T13:49:39Z</time>
      </trkpt>
      <trkpt lat="49.27809" lon="0.07886">
        <ele>61.799999237061</ele>
        <time>2022-08-30T13:49:51Z</time>
      </trkpt>
      <trkpt lat="49.27807" lon="0.07903">
        <ele>61.599998474121</ele>
        <time>2022-08-30T13:50:22Z</time>
      </trkpt>
      <trkpt lat="49.27807" lon="0.07914">
        <ele>61.599998474121</ele>
        <time>2022-08-30T13:50:30Z</time>
      </trkpt>
      <trkpt lat="49.27806" lon="0.07917">
        <ele>61.599998474121</ele>
        <time>2022-08-30T13:50:31Z</time>
      </trkpt>
      <trkpt lat="49.27807" lon="0.07921">
        <ele>61.599998474121</ele>
        <time>2022-08-30T13:50:32Z</time>
      </trkpt>
      <trkpt lat="49.27806" lon="0.07925">
        <ele>61.400001525879</ele>
        <time>2022-08-30T13:50:33Z</time>
      </trkpt>
      <trkpt lat="49.27805" lon="0.07928">
        <ele>61.400001525879</ele>
        <time>2022-08-30T13:50:34Z</time>
      </trkpt>
      <trkpt lat="49.27804" lon="0.07934">
        <ele>61</ele>
        <time>2022-08-30T13:50:39Z</time>
      </trkpt>
      <trkpt lat="49.27803" lon="0.07942">
        <ele>60.799999237061</ele>
        <time>2022-08-30T13:50:44Z</time>
      </trkpt>
      <trkpt lat="49.27802" lon="0.07946">
        <ele>60.599998474121</ele>
        <time>2022-08-30T13:50:45Z</time>
      </trkpt>
      <trkpt lat="49.27802" lon="0.07948">
        <ele>60.599998474121</ele>
        <time>2022-08-30T13:50:46Z</time>
      </trkpt>
      <trkpt lat="49.27802" lon="0.0795">
        <ele>60.599998474121</ele>
        <time>2022-08-30T13:50:47Z</time>
      </trkpt>
      <trkpt lat="49.27799" lon="0.07968">
        <ele>60.200000762939</ele>
        <time>2022-08-30T13:50:57Z</time>
      </trkpt>
      <trkpt lat="49.27798" lon="0.07989">
        <ele>58.799999237061</ele>
        <time>2022-08-30T13:51:16Z</time>
      </trkpt>
      <trkpt lat="49.27798" lon="0.0799">
        <ele>58.599998474121</ele>
        <time>2022-08-30T13:51:17Z</time>
      </trkpt>
      <trkpt lat="49.27795" lon="0.08008">
        <ele>58.599998474121</ele>
        <time>2022-08-30T13:51:27Z</time>
      </trkpt>
      <trkpt lat="49.27795" lon="0.0801">
        <ele>58.599998474121</ele>
        <time>2022-08-30T13:51:28Z</time>
      </trkpt>
      <trkpt lat="49.27793" lon="0.08026">
        <ele>58.200000762939</ele>
        <time>2022-08-30T13:51:37Z</time>
      </trkpt>
      <trkpt lat="49.27793" lon="0.08027">
        <ele>58</ele>
        <time>2022-08-30T13:51:38Z</time>
      </trkpt>
      <trkpt lat="49.27793" lon="0.08029">
        <ele>58</ele>
        <time>2022-08-30T13:51:39Z</time>
      </trkpt>
      <trkpt lat="49.27787" lon="0.0805">
        <ele>56.400001525879</ele>
        <time>2022-08-30T13:51:54Z</time>
      </trkpt>
      <trkpt lat="49.27784" lon="0.0807">
        <ele>53.400001525879</ele>
        <time>2022-08-30T13:52:15Z</time>
      </trkpt>
      <trkpt lat="49.27782" lon="0.08077">
        <ele>53.200000762939</ele>
        <time>2022-08-30T13:52:34Z</time>
      </trkpt>
      <trkpt lat="49.27769" lon="0.08096">
        <ele>50</ele>
        <time>2022-08-30T13:52:57Z</time>
      </trkpt>
      <trkpt lat="49.27754" lon="0.08097">
        <ele>47.799999237061</ele>
        <time>2022-08-30T13:53:13Z</time>
      </trkpt>
      <trkpt lat="49.27733" lon="0.08085">
        <ele>48</ele>
        <time>2022-08-30T13:53:36Z</time>
      </trkpt>
      <trkpt lat="49.27704" lon="0.0808">
        <ele>48.200000762939</ele>
        <time>2022-08-30T13:53:56Z</time>
      </trkpt>
      <trkpt lat="49.27666" lon="0.08091">
        <ele>45.599998474121</ele>
        <time>2022-08-30T13:54:28Z</time>
      </trkpt>
      <trkpt lat="49.27651" lon="0.08092">
        <ele>43</ele>
        <time>2022-08-30T13:54:48Z</time>
      </trkpt>
      <trkpt lat="49.27645" lon="0.08096">
        <ele>41.599998474121</ele>
        <time>2022-08-30T13:54:58Z</time>
      </trkpt>
      <trkpt lat="49.27639" lon="0.08101">
        <ele>41.400001525879</ele>
        <time>2022-08-30T13:55:28Z</time>
      </trkpt>
      <trkpt lat="49.27638" lon="0.08101">
        <ele>41.200000762939</ele>
        <time>2022-08-30T13:55:30Z</time>
      </trkpt>
      <trkpt lat="49.27634" lon="0.08105">
        <ele>41.200000762939</ele>
        <time>2022-08-30T13:55:33Z</time>
      </trkpt>
      <trkpt lat="49.2763" lon="0.08111">
        <ele>41</ele>
        <time>2022-08-30T13:55:41Z</time>
      </trkpt>
      <trkpt lat="49.27626" lon="0.08113">
        <ele>41.400001525879</ele>
        <time>2022-08-30T13:56:21Z</time>
      </trkpt>
      <trkpt lat="49.27624" lon="0.08113">
        <ele>41.200000762939</ele>
        <time>2022-08-30T13:56:35Z</time>
      </trkpt>
      <trkpt lat="49.27623" lon="0.08114">
        <ele>41</ele>
        <time>2022-08-30T13:56:38Z</time>
      </trkpt>
      <trkpt lat="49.27612" lon="0.08118">
        <ele>41</ele>
        <time>2022-08-30T13:57:23Z</time>
      </trkpt>
      <trkpt lat="49.27608" lon="0.08111">
        <ele>41</ele>
        <time>2022-08-30T13:57:41Z</time>
      </trkpt>
      <trkpt lat="49.27601" lon="0.08109">
        <ele>41.400001525879</ele>
        <time>2022-08-30T13:58:19Z</time>
      </trkpt>
      <trkpt lat="49.27591" lon="0.08107">
        <ele>42.400001525879</ele>
        <time>2022-08-30T13:58:39Z</time>
      </trkpt>
      <trkpt lat="49.27592" lon="0.08112">
        <ele>43.599998474121</ele>
        <time>2022-08-30T13:59:03Z</time>
      </trkpt>
      <trkpt lat="49.27592" lon="0.08113">
        <ele>43.799999237061</ele>
        <time>2022-08-30T13:59:05Z</time>
      </trkpt>
      <trkpt lat="49.2759" lon="0.08121">
        <ele>44.799999237061</ele>
        <time>2022-08-30T13:59:13Z</time>
      </trkpt>
      <trkpt lat="49.2759" lon="0.08125">
        <ele>45.400001525879</ele>
        <time>2022-08-30T13:59:17Z</time>
      </trkpt>
      <trkpt lat="49.27586" lon="0.08129">
        <ele>46.200000762939</ele>
        <time>2022-08-30T13:59:22Z</time>
      </trkpt>
      <trkpt lat="49.27583" lon="0.08137">
        <ele>47.599998474121</ele>
        <time>2022-08-30T13:59:32Z</time>
      </trkpt>
      <trkpt lat="49.27573" lon="0.08149">
        <ele>49.599998474121</ele>
        <time>2022-08-30T13:59:50Z</time>
      </trkpt>
      <trkpt lat="49.27568" lon="0.0816">
        <ele>51.799999237061</ele>
        <time>2022-08-30T14:00:02Z</time>
      </trkpt>
      <trkpt lat="49.27557" lon="0.08173">
        <ele>53.599998474121</ele>
        <time>2022-08-30T14:00:15Z</time>
      </trkpt>
      <trkpt lat="49.27548" lon="0.08195">
        <ele>56.400001525879</ele>
        <time>2022-08-30T14:00:39Z</time>
      </trkpt>
      <trkpt lat="49.27543" lon="0.0821">
        <ele>59.599998474121</ele>
        <time>2022-08-30T14:00:56Z</time>
      </trkpt>
      <trkpt lat="49.27538" lon="0.08226">
        <ele>61.799999237061</ele>
        <time>2022-08-30T14:01:11Z</time>
      </trkpt>
      <trkpt lat="49.27534" lon="0.08229">
        <ele>64</ele>
        <time>2022-08-30T14:01:30Z</time>
      </trkpt>
      <trkpt lat="49.2753" lon="0.08232">
        <ele>64.199996948242</ele>
        <time>2022-08-30T14:01:57Z</time>
      </trkpt>
      <trkpt lat="49.27522" lon="0.08245">
        <ele>65.400001525879</ele>
        <time>2022-08-30T14:02:14Z</time>
      </trkpt>
      <trkpt lat="49.27509" lon="0.08274">
        <ele>67.800003051758</ele>
        <time>2022-08-30T14:02:37Z</time>
      </trkpt>
      <trkpt lat="49.27502" lon="0.08295">
        <ele>70.199996948242</ele>
        <time>2022-08-30T14:02:53Z</time>
      </trkpt>
      <trkpt lat="49.27502" lon="0.0832">
        <ele>72.599998474121</ele>
        <time>2022-08-30T14:03:11Z</time>
      </trkpt>
      <trkpt lat="49.27501" lon="0.08349">
        <ele>74.800003051758</ele>
        <time>2022-08-30T14:03:35Z</time>
      </trkpt>
      <trkpt lat="49.27501" lon="0.08382">
        <ele>77</ele>
        <time>2022-08-30T14:03:54Z</time>
      </trkpt>
      <trkpt lat="49.27501" lon="0.08414">
        <ele>79.400001525879</ele>
        <time>2022-08-30T14:04:14Z</time>
      </trkpt>
      <trkpt lat="49.27499" lon="0.08439">
        <ele>80.599998474121</ele>
        <time>2022-08-30T14:04:30Z</time>
      </trkpt>
      <trkpt lat="49.27493" lon="0.0846">
        <ele>81.199996948242</ele>
        <time>2022-08-30T14:04:47Z</time>
      </trkpt>
      <trkpt lat="49.27493" lon="0.08482">
        <ele>81.800003051758</ele>
        <time>2022-08-30T14:05:02Z</time>
      </trkpt>
      <trkpt lat="49.27488" lon="0.08512">
        <ele>82.800003051758</ele>
        <time>2022-08-30T14:05:19Z</time>
      </trkpt>
      <trkpt lat="49.27483" lon="0.08526">
        <ele>83.199996948242</ele>
        <time>2022-08-30T14:05:31Z</time>
      </trkpt>
      <trkpt lat="49.27482" lon="0.0854">
        <ele>83.400001525879</ele>
        <time>2022-08-30T14:05:39Z</time>
      </trkpt>
      <trkpt lat="49.27479" lon="0.0856">
        <ele>83.400001525879</ele>
        <time>2022-08-30T14:05:51Z</time>
      </trkpt>
      <trkpt lat="49.27479" lon="0.08562">
        <ele>83.400001525879</ele>
        <time>2022-08-30T14:05:52Z</time>
      </trkpt>
      <trkpt lat="49.27478" lon="0.08565">
        <ele>83.400001525879</ele>
        <time>2022-08-30T14:05:53Z</time>
      </trkpt>
      <trkpt lat="49.27478" lon="0.08568">
        <ele>83.400001525879</ele>
        <time>2022-08-30T14:05:54Z</time>
      </trkpt>
      <trkpt lat="49.27477" lon="0.08571">
        <ele>83.599998474121</ele>
        <time>2022-08-30T14:05:55Z</time>
      </trkpt>
      <trkpt lat="49.27475" lon="0.0858">
        <ele>83.800003051758</ele>
        <time>2022-08-30T14:06:02Z</time>
      </trkpt>
      <trkpt lat="49.27473" lon="0.08584">
        <ele>83.800003051758</ele>
        <time>2022-08-30T14:06:04Z</time>
      </trkpt>
      <trkpt lat="49.27464" lon="0.08603">
        <ele>84.199996948242</ele>
        <time>2022-08-30T14:06:19Z</time>
      </trkpt>
      <trkpt lat="49.27463" lon="0.08605">
        <ele>84.199996948242</ele>
        <time>2022-08-30T14:06:20Z</time>
      </trkpt>
      <trkpt lat="49.27462" lon="0.08606">
        <ele>84.199996948242</ele>
        <time>2022-08-30T14:06:21Z</time>
      </trkpt>
      <trkpt lat="49.27461" lon="0.08608">
        <ele>84.199996948242</ele>
        <time>2022-08-30T14:06:22Z</time>
      </trkpt>
      <trkpt lat="49.27461" lon="0.08609">
        <ele>84.199996948242</ele>
        <time>2022-08-30T14:06:23Z</time>
      </trkpt>
      <trkpt lat="49.2746" lon="0.08611">
        <ele>84.199996948242</ele>
        <time>2022-08-30T14:06:24Z</time>
      </trkpt>
      <trkpt lat="49.27459" lon="0.08613">
        <ele>84.199996948242</ele>
        <time>2022-08-30T14:06:25Z</time>
      </trkpt>
      <trkpt lat="49.27459" lon="0.08615">
        <ele>84.199996948242</ele>
        <time>2022-08-30T14:06:26Z</time>
      </trkpt>
      <trkpt lat="49.27458" lon="0.08616">
        <ele>84.199996948242</ele>
        <time>2022-08-30T14:06:27Z</time>
      </trkpt>
      <trkpt lat="49.27447" lon="0.0864">
        <ele>84.599998474121</ele>
        <time>2022-08-30T14:06:43Z</time>
      </trkpt>
      <trkpt lat="49.27445" lon="0.08643">
        <ele>84.800003051758</ele>
        <time>2022-08-30T14:06:46Z</time>
      </trkpt>
      <trkpt lat="49.27444" lon="0.08645">
        <ele>84.800003051758</ele>
        <time>2022-08-30T14:06:47Z</time>
      </trkpt>
      <trkpt lat="49.27438" lon="0.08657">
        <ele>85</ele>
        <time>2022-08-30T14:06:53Z</time>
      </trkpt>
      <trkpt lat="49.27429" lon="0.08678">
        <ele>85.199996948242</ele>
        <time>2022-08-30T14:07:08Z</time>
      </trkpt>
      <trkpt lat="49.27423" lon="0.08704">
        <ele>85.199996948242</ele>
        <time>2022-08-30T14:07:24Z</time>
      </trkpt>
      <trkpt lat="49.27416" lon="0.08722">
        <ele>85.199996948242</ele>
        <time>2022-08-30T14:07:37Z</time>
      </trkpt>
      <trkpt lat="49.27414" lon="0.08723">
        <ele>85.400001525879</ele>
        <time>2022-08-30T14:07:38Z</time>
      </trkpt>
      <trkpt lat="49.27413" lon="0.08724">
        <ele>85.400001525879</ele>
        <time>2022-08-30T14:07:39Z</time>
      </trkpt>
      <trkpt lat="49.2741" lon="0.08726">
        <ele>85.400001525879</ele>
        <time>2022-08-30T14:07:42Z</time>
      </trkpt>
      <trkpt lat="49.27409" lon="0.08727">
        <ele>85.599998474121</ele>
        <time>2022-08-30T14:07:43Z</time>
      </trkpt>
      <trkpt lat="49.27392" lon="0.08736">
        <ele>86</ele>
        <time>2022-08-30T14:07:59Z</time>
      </trkpt>
      <trkpt lat="49.27373" lon="0.08745">
        <ele>86.400001525879</ele>
        <time>2022-08-30T14:08:15Z</time>
      </trkpt>
      <trkpt lat="49.27358" lon="0.0875">
        <ele>86.400001525879</ele>
        <time>2022-08-30T14:08:27Z</time>
      </trkpt>
      <trkpt lat="49.27357" lon="0.08751">
        <ele>86.400001525879</ele>
        <time>2022-08-30T14:08:28Z</time>
      </trkpt>
      <trkpt lat="49.27356" lon="0.08751">
        <ele>86.400001525879</ele>
        <time>2022-08-30T14:08:29Z</time>
      </trkpt>
      <trkpt lat="49.27354" lon="0.08752">
        <ele>86.400001525879</ele>
        <time>2022-08-30T14:08:30Z</time>
      </trkpt>
      <trkpt lat="49.27353" lon="0.08752">
        <ele>86.400001525879</ele>
        <time>2022-08-30T14:08:31Z</time>
      </trkpt>
      <trkpt lat="49.27352" lon="0.08753">
        <ele>86.400001525879</ele>
        <time>2022-08-30T14:08:32Z</time>
      </trkpt>
      <trkpt lat="49.27335" lon="0.08761">
        <ele>86.800003051758</ele>
        <time>2022-08-30T14:08:51Z</time>
      </trkpt>
      <trkpt lat="49.2731" lon="0.08774">
        <ele>87</ele>
        <time>2022-08-30T14:09:15Z</time>
      </trkpt>
      <trkpt lat="49.27305" lon="0.08776">
        <ele>87</ele>
        <time>2022-08-30T14:09:19Z</time>
      </trkpt>
      <trkpt lat="49.27286" lon="0.08781">
        <ele>87.199996948242</ele>
        <time>2022-08-30T14:09:33Z</time>
      </trkpt>
      <trkpt lat="49.27285" lon="0.08782">
        <ele>87.400001525879</ele>
        <time>2022-08-30T14:09:34Z</time>
      </trkpt>
      <trkpt lat="49.27283" lon="0.08781">
        <ele>87.400001525879</ele>
        <time>2022-08-30T14:09:35Z</time>
      </trkpt>
      <trkpt lat="49.27282" lon="0.08782">
        <ele>87.400001525879</ele>
        <time>2022-08-30T14:09:36Z</time>
      </trkpt>
      <trkpt lat="49.2727" lon="0.08789">
        <ele>87.599998474121</ele>
        <time>2022-08-30T14:09:46Z</time>
      </trkpt>
      <trkpt lat="49.27265" lon="0.08814">
        <ele>87.800003051758</ele>
        <time>2022-08-30T14:10:06Z</time>
      </trkpt>
      <trkpt lat="49.27268" lon="0.08847">
        <ele>87.599998474121</ele>
        <time>2022-08-30T14:10:26Z</time>
      </trkpt>
      <trkpt lat="49.27271" lon="0.0888">
        <ele>87.199996948242</ele>
        <time>2022-08-30T14:10:48Z</time>
      </trkpt>
      <trkpt lat="49.27273" lon="0.08912">
        <ele>86.199996948242</ele>
        <time>2022-08-30T14:11:09Z</time>
      </trkpt>
      <trkpt lat="49.27276" lon="0.08922">
        <ele>86.199996948242</ele>
        <time>2022-08-30T14:11:15Z</time>
      </trkpt>
      <trkpt lat="49.27276" lon="0.08924">
        <ele>86</ele>
        <time>2022-08-30T14:11:16Z</time>
      </trkpt>
      <trkpt lat="49.27278" lon="0.08949">
        <ele>85.199996948242</ele>
        <time>2022-08-30T14:11:31Z</time>
      </trkpt>
      <trkpt lat="49.27285" lon="0.08984">
        <ele>83</ele>
        <time>2022-08-30T14:11:54Z</time>
      </trkpt>
      <trkpt lat="49.27292" lon="0.0902">
        <ele>80</ele>
        <time>2022-08-30T14:12:15Z</time>
      </trkpt>
      <trkpt lat="49.27294" lon="0.09056">
        <ele>77</ele>
        <time>2022-08-30T14:12:34Z</time>
      </trkpt>
      <trkpt lat="49.27301" lon="0.09092">
        <ele>76.400001525879</ele>
        <time>2022-08-30T14:12:51Z</time>
      </trkpt>
      <trkpt lat="49.27309" lon="0.09112">
        <ele>76.400001525879</ele>
        <time>2022-08-30T14:13:02Z</time>
      </trkpt>
      <trkpt lat="49.27316" lon="0.0913">
        <ele>76.199996948242</ele>
        <time>2022-08-30T14:13:18Z</time>
      </trkpt>
      <trkpt lat="49.27317" lon="0.09141">
        <ele>76.400001525879</ele>
        <time>2022-08-30T14:13:26Z</time>
      </trkpt>
      <trkpt lat="49.27318" lon="0.09143">
        <ele>76.400001525879</ele>
        <time>2022-08-30T14:13:27Z</time>
      </trkpt>
      <trkpt lat="49.27319" lon="0.09145">
        <ele>76.400001525879</ele>
        <time>2022-08-30T14:13:28Z</time>
      </trkpt>
      <trkpt lat="49.27319" lon="0.09147">
        <ele>76.400001525879</ele>
        <time>2022-08-30T14:13:29Z</time>
      </trkpt>
      <trkpt lat="49.27319" lon="0.09148">
        <ele>76.400001525879</ele>
        <time>2022-08-30T14:13:30Z</time>
      </trkpt>
      <trkpt lat="49.27322" lon="0.09156">
        <ele>76.800003051758</ele>
        <time>2022-08-30T14:13:35Z</time>
      </trkpt>
      <trkpt lat="49.27323" lon="0.09157">
        <ele>76.800003051758</ele>
        <time>2022-08-30T14:13:36Z</time>
      </trkpt>
      <trkpt lat="49.2733" lon="0.09175">
        <ele>77.800003051758</ele>
        <time>2022-08-30T14:13:47Z</time>
      </trkpt>
      <trkpt lat="49.27344" lon="0.09179">
        <ele>80.199996948242</ele>
        <time>2022-08-30T14:14:04Z</time>
      </trkpt>
      <trkpt lat="49.27345" lon="0.09178">
        <ele>80.400001525879</ele>
        <time>2022-08-30T14:14:05Z</time>
      </trkpt>
      <trkpt lat="49.27361" lon="0.09167">
        <ele>81.800003051758</ele>
        <time>2022-08-30T14:14:21Z</time>
      </trkpt>
      <trkpt lat="49.27366" lon="0.09163">
        <ele>82</ele>
        <time>2022-08-30T14:14:27Z</time>
      </trkpt>
      <trkpt lat="49.27368" lon="0.09163">
        <ele>82</ele>
        <time>2022-08-30T14:14:28Z</time>
      </trkpt>
      <trkpt lat="49.27369" lon="0.09162">
        <ele>82</ele>
        <time>2022-08-30T14:14:29Z</time>
      </trkpt>
      <trkpt lat="49.27391" lon="0.09153">
        <ele>82.400001525879</ele>
        <time>2022-08-30T14:14:50Z</time>
      </trkpt>
      <trkpt lat="49.27399" lon="0.09149">
        <ele>82.400001525879</ele>
        <time>2022-08-30T14:14:57Z</time>
      </trkpt>
      <trkpt lat="49.27401" lon="0.09148">
        <ele>82.400001525879</ele>
        <time>2022-08-30T14:14:58Z</time>
      </trkpt>
      <trkpt lat="49.27431" lon="0.09141">
        <ele>82.800003051758</ele>
        <time>2022-08-30T14:15:23Z</time>
      </trkpt>
      <trkpt lat="49.27461" lon="0.09139">
        <ele>82.800003051758</ele>
        <time>2022-08-30T14:15:49Z</time>
      </trkpt>
      <trkpt lat="49.2749" lon="0.09139">
        <ele>83.599998474121</ele>
        <time>2022-08-30T14:16:13Z</time>
      </trkpt>
      <trkpt lat="49.27518" lon="0.09139">
        <ele>83.400001525879</ele>
        <time>2022-08-30T14:16:36Z</time>
      </trkpt>
      <trkpt lat="49.27543" lon="0.09148">
        <ele>82.800003051758</ele>
        <time>2022-08-30T14:16:55Z</time>
      </trkpt>
      <trkpt lat="49.27574" lon="0.09154">
        <ele>82.199996948242</ele>
        <time>2022-08-30T14:17:20Z</time>
      </trkpt>
      <trkpt lat="49.27577" lon="0.09153">
        <ele>82</ele>
        <time>2022-08-30T14:17:27Z</time>
      </trkpt>
      <trkpt lat="49.27582" lon="0.0916">
        <ele>82</ele>
        <time>2022-08-30T14:18:14Z</time>
      </trkpt>
      <trkpt lat="49.27564" lon="0.09156">
        <ele>82</ele>
        <time>2022-08-30T14:18:37Z</time>
      </trkpt>
      <trkpt lat="49.27548" lon="0.09154">
        <ele>82.599998474121</ele>
        <time>2022-08-30T14:18:51Z</time>
      </trkpt>
      <trkpt lat="49.27526" lon="0.09149">
        <ele>82.800003051758</ele>
        <time>2022-08-30T14:19:08Z</time>
      </trkpt>
      <trkpt lat="49.27502" lon="0.09144">
        <ele>83.199996948242</ele>
        <time>2022-08-30T14:19:29Z</time>
      </trkpt>
      <trkpt lat="49.27475" lon="0.0914">
        <ele>83.599998474121</ele>
        <time>2022-08-30T14:19:50Z</time>
      </trkpt>
      <trkpt lat="49.27459" lon="0.09145">
        <ele>83.199996948242</ele>
        <time>2022-08-30T14:20:06Z</time>
      </trkpt>
      <trkpt lat="49.27455" lon="0.09146">
        <ele>83.199996948242</ele>
        <time>2022-08-30T14:20:08Z</time>
      </trkpt>
      <trkpt lat="49.2742" lon="0.09152">
        <ele>83.199996948242</ele>
        <time>2022-08-30T14:20:35Z</time>
      </trkpt>
      <trkpt lat="49.27393" lon="0.09158">
        <ele>82.800003051758</ele>
        <time>2022-08-30T14:20:57Z</time>
      </trkpt>
      <trkpt lat="49.27371" lon="0.09169">
        <ele>82.400001525879</ele>
        <time>2022-08-30T14:21:17Z</time>
      </trkpt>
      <trkpt lat="49.27348" lon="0.0918">
        <ele>82</ele>
        <time>2022-08-30T14:21:35Z</time>
      </trkpt>
      <trkpt lat="49.27337" lon="0.09188">
        <ele>80.800003051758</ele>
        <time>2022-08-30T14:21:49Z</time>
      </trkpt>
      <trkpt lat="49.27337" lon="0.09207">
        <ele>80.599998474121</ele>
        <time>2022-08-30T14:22:03Z</time>
      </trkpt>
      <trkpt lat="49.27343" lon="0.09222">
        <ele>81.800003051758</ele>
        <time>2022-08-30T14:22:12Z</time>
      </trkpt>
      <trkpt lat="49.27346" lon="0.09266">
        <ele>83.800003051758</ele>
        <time>2022-08-30T14:22:36Z</time>
      </trkpt>
      <trkpt lat="49.27347" lon="0.09302">
        <ele>85.199996948242</ele>
        <time>2022-08-30T14:22:55Z</time>
      </trkpt>
      <trkpt lat="49.27345" lon="0.09334">
        <ele>86.199996948242</ele>
        <time>2022-08-30T14:23:13Z</time>
      </trkpt>
      <trkpt lat="49.27338" lon="0.09376">
        <ele>87.199996948242</ele>
        <time>2022-08-30T14:23:35Z</time>
      </trkpt>
      <trkpt lat="49.27338" lon="0.09389">
        <ele>87.800003051758</ele>
        <time>2022-08-30T14:23:43Z</time>
      </trkpt>
      <trkpt lat="49.27339" lon="0.09393">
        <ele>88</ele>
        <time>2022-08-30T14:23:45Z</time>
      </trkpt>
      <trkpt lat="49.27352" lon="0.09412">
        <ele>88.599998474121</ele>
        <time>2022-08-30T14:24:02Z</time>
      </trkpt>
      <trkpt lat="49.27364" lon="0.09424">
        <ele>89</ele>
        <time>2022-08-30T14:24:16Z</time>
      </trkpt>
      <trkpt lat="49.27384" lon="0.09455">
        <ele>89.599998474121</ele>
        <time>2022-08-30T14:24:41Z</time>
      </trkpt>
      <trkpt lat="49.27385" lon="0.09458">
        <ele>89.800003051758</ele>
        <time>2022-08-30T14:24:43Z</time>
      </trkpt>
      <trkpt lat="49.27394" lon="0.09485">
        <ele>90.400001525879</ele>
        <time>2022-08-30T14:24:58Z</time>
      </trkpt>
      <trkpt lat="49.27394" lon="0.0952">
        <ele>91.199996948242</ele>
        <time>2022-08-30T14:25:19Z</time>
      </trkpt>
      <trkpt lat="49.2739" lon="0.09553">
        <ele>91.800003051758</ele>
        <time>2022-08-30T14:25:40Z</time>
      </trkpt>
      <trkpt lat="49.27383" lon="0.09575">
        <ele>92</ele>
        <time>2022-08-30T14:25:55Z</time>
      </trkpt>
      <trkpt lat="49.27368" lon="0.09596">
        <ele>91.800003051758</ele>
        <time>2022-08-30T14:26:12Z</time>
      </trkpt>
      <trkpt lat="49.27351" lon="0.09618">
        <ele>92</ele>
        <time>2022-08-30T14:26:29Z</time>
      </trkpt>
      <trkpt lat="49.2734" lon="0.09645">
        <ele>92.400001525879</ele>
        <time>2022-08-30T14:26:47Z</time>
      </trkpt>
      <trkpt lat="49.27326" lon="0.0967">
        <ele>92.599998474121</ele>
        <time>2022-08-30T14:27:04Z</time>
      </trkpt>
      <trkpt lat="49.27309" lon="0.097">
        <ele>93</ele>
        <time>2022-08-30T14:27:24Z</time>
      </trkpt>
      <trkpt lat="49.27304" lon="0.09709">
        <ele>93</ele>
        <time>2022-08-30T14:27:32Z</time>
      </trkpt>
      <trkpt lat="49.27302" lon="0.09713">
        <ele>93</ele>
        <time>2022-08-30T14:27:35Z</time>
      </trkpt>
      <trkpt lat="49.27296" lon="0.09722">
        <ele>93</ele>
        <time>2022-08-30T14:27:40Z</time>
      </trkpt>
      <trkpt lat="49.27294" lon="0.09725">
        <ele>93</ele>
        <time>2022-08-30T14:27:41Z</time>
      </trkpt>
      <trkpt lat="49.27293" lon="0.09728">
        <ele>93</ele>
        <time>2022-08-30T14:27:42Z</time>
      </trkpt>
      <trkpt lat="49.27291" lon="0.09731">
        <ele>93</ele>
        <time>2022-08-30T14:27:43Z</time>
      </trkpt>
      <trkpt lat="49.27282" lon="0.09748">
        <ele>93.199996948242</ele>
        <time>2022-08-30T14:27:56Z</time>
      </trkpt>
      <trkpt lat="49.27282" lon="0.09753">
        <ele>93.199996948242</ele>
        <time>2022-08-30T14:28:00Z</time>
      </trkpt>
      <trkpt lat="49.27281" lon="0.09755">
        <ele>93.199996948242</ele>
        <time>2022-08-30T14:28:01Z</time>
      </trkpt>
      <trkpt lat="49.27281" lon="0.09757">
        <ele>93.199996948242</ele>
        <time>2022-08-30T14:28:02Z</time>
      </trkpt>
      <trkpt lat="49.27281" lon="0.09759">
        <ele>93.199996948242</ele>
        <time>2022-08-30T14:28:03Z</time>
      </trkpt>
      <trkpt lat="49.27281" lon="0.09761">
        <ele>93.199996948242</ele>
        <time>2022-08-30T14:28:04Z</time>
      </trkpt>
      <trkpt lat="49.27272" lon="0.09783">
        <ele>93.199996948242</ele>
        <time>2022-08-30T14:28:19Z</time>
      </trkpt>
      <trkpt lat="49.27266" lon="0.09801">
        <ele>93.599998474121</ele>
        <time>2022-08-30T14:28:29Z</time>
      </trkpt>
      <trkpt lat="49.27266" lon="0.09803">
        <ele>93.599998474121</ele>
        <time>2022-08-30T14:28:30Z</time>
      </trkpt>
      <trkpt lat="49.27266" lon="0.09805">
        <ele>93.599998474121</ele>
        <time>2022-08-30T14:28:31Z</time>
      </trkpt>
      <trkpt lat="49.27265" lon="0.09807">
        <ele>93.599998474121</ele>
        <time>2022-08-30T14:28:32Z</time>
      </trkpt>
      <trkpt lat="49.27265" lon="0.09808">
        <ele>93.599998474121</ele>
        <time>2022-08-30T14:28:33Z</time>
      </trkpt>
      <trkpt lat="49.27264" lon="0.0981">
        <ele>93.599998474121</ele>
        <time>2022-08-30T14:28:34Z</time>
      </trkpt>
      <trkpt lat="49.27264" lon="0.09812">
        <ele>93.599998474121</ele>
        <time>2022-08-30T14:28:35Z</time>
      </trkpt>
      <trkpt lat="49.27264" lon="0.09813">
        <ele>93.599998474121</ele>
        <time>2022-08-30T14:28:36Z</time>
      </trkpt>
      <trkpt lat="49.27264" lon="0.09815">
        <ele>93.599998474121</ele>
        <time>2022-08-30T14:28:37Z</time>
      </trkpt>
      <trkpt lat="49.27262" lon="0.09822">
        <ele>93.599998474121</ele>
        <time>2022-08-30T14:28:42Z</time>
      </trkpt>
      <trkpt lat="49.27262" lon="0.09823">
        <ele>93.599998474121</ele>
        <time>2022-08-30T14:28:43Z</time>
      </trkpt>
      <trkpt lat="49.27255" lon="0.0985">
        <ele>93.800003051758</ele>
        <time>2022-08-30T14:28:59Z</time>
      </trkpt>
      <trkpt lat="49.27251" lon="0.0988">
        <ele>93.599998474121</ele>
        <time>2022-08-30T14:29:15Z</time>
      </trkpt>
      <trkpt lat="49.27249" lon="0.09899">
        <ele>93.599998474121</ele>
        <time>2022-08-30T14:29:28Z</time>
      </trkpt>
      <trkpt lat="49.2725" lon="0.09903">
        <ele>93.599998474121</ele>
        <time>2022-08-30T14:29:30Z</time>
      </trkpt>
      <trkpt lat="49.2725" lon="0.09905">
        <ele>93.599998474121</ele>
        <time>2022-08-30T14:29:31Z</time>
      </trkpt>
      <trkpt lat="49.2725" lon="0.09907">
        <ele>93.599998474121</ele>
        <time>2022-08-30T14:29:32Z</time>
      </trkpt>
      <trkpt lat="49.27251" lon="0.0991">
        <ele>93.599998474121</ele>
        <time>2022-08-30T14:29:33Z</time>
      </trkpt>
      <trkpt lat="49.27251" lon="0.09911">
        <ele>93.599998474121</ele>
        <time>2022-08-30T14:29:34Z</time>
      </trkpt>
      <trkpt lat="49.27251" lon="0.09913">
        <ele>93.599998474121</ele>
        <time>2022-08-30T14:29:35Z</time>
      </trkpt>
      <trkpt lat="49.27252" lon="0.09915">
        <ele>93.599998474121</ele>
        <time>2022-08-30T14:29:36Z</time>
      </trkpt>
      <trkpt lat="49.27251" lon="0.09933">
        <ele>93.800003051758</ele>
        <time>2022-08-30T14:29:46Z</time>
      </trkpt>
      <trkpt lat="49.27251" lon="0.09936">
        <ele>93.800003051758</ele>
        <time>2022-08-30T14:29:47Z</time>
      </trkpt>
      <trkpt lat="49.27251" lon="0.09939">
        <ele>93.800003051758</ele>
        <time>2022-08-30T14:29:48Z</time>
      </trkpt>
      <trkpt lat="49.27251" lon="0.09943">
        <ele>93.800003051758</ele>
        <time>2022-08-30T14:29:49Z</time>
      </trkpt>
      <trkpt lat="49.27251" lon="0.09945">
        <ele>93.800003051758</ele>
        <time>2022-08-30T14:29:50Z</time>
      </trkpt>
      <trkpt lat="49.27251" lon="0.09941">
        <ele>94.199996948242</ele>
        <time>2022-08-30T14:30:03Z</time>
      </trkpt>
      <trkpt lat="49.27251" lon="0.0994">
        <ele>94.199996948242</ele>
        <time>2022-08-30T14:30:04Z</time>
      </trkpt>
      <trkpt lat="49.2725" lon="0.09937">
        <ele>94.199996948242</ele>
        <time>2022-08-30T14:30:05Z</time>
      </trkpt>
      <trkpt lat="49.27242" lon="0.09931">
        <ele>94.199996948242</ele>
        <time>2022-08-30T14:30:13Z</time>
      </trkpt>
      <trkpt lat="49.2724" lon="0.09931">
        <ele>94.199996948242</ele>
        <time>2022-08-30T14:30:14Z</time>
      </trkpt>
      <trkpt lat="49.27224" lon="0.09926">
        <ele>94.199996948242</ele>
        <time>2022-08-30T14:30:28Z</time>
      </trkpt>
      <trkpt lat="49.27219" lon="0.09925">
        <ele>94.199996948242</ele>
        <time>2022-08-30T14:30:32Z</time>
      </trkpt>
      <trkpt lat="49.27218" lon="0.09924">
        <ele>94.199996948242</ele>
        <time>2022-08-30T14:30:33Z</time>
      </trkpt>
      <trkpt lat="49.27202" lon="0.09915">
        <ele>94.400001525879</ele>
        <time>2022-08-30T14:30:48Z</time>
      </trkpt>
      <trkpt lat="49.27195" lon="0.09912">
        <ele>94.599998474121</ele>
        <time>2022-08-30T14:30:55Z</time>
      </trkpt>
      <trkpt lat="49.27193" lon="0.09911">
        <ele>94.599998474121</ele>
        <time>2022-08-30T14:30:57Z</time>
      </trkpt>
      <trkpt lat="49.27167" lon="0.09892">
        <ele>94.599998474121</ele>
        <time>2022-08-30T14:31:18Z</time>
      </trkpt>
      <trkpt lat="49.27148" lon="0.09883">
        <ele>95</ele>
        <time>2022-08-30T14:31:34Z</time>
      </trkpt>
      <trkpt lat="49.27144" lon="0.09882">
        <ele>95.199996948242</ele>
        <time>2022-08-30T14:31:38Z</time>
      </trkpt>
      <trkpt lat="49.27143" lon="0.09881">
        <ele>95.199996948242</ele>
        <time>2022-08-30T14:31:39Z</time>
      </trkpt>
      <trkpt lat="49.27142" lon="0.09879">
        <ele>95.199996948242</ele>
        <time>2022-08-30T14:31:40Z</time>
      </trkpt>
      <trkpt lat="49.27122" lon="0.09865">
        <ele>95.400001525879</ele>
        <time>2022-08-30T14:31:57Z</time>
      </trkpt>
      <trkpt lat="49.2712" lon="0.09864">
        <ele>95.400001525879</ele>
        <time>2022-08-30T14:32:00Z</time>
      </trkpt>
      <trkpt lat="49.27116" lon="0.09862">
        <ele>95.400001525879</ele>
        <time>2022-08-30T14:32:03Z</time>
      </trkpt>
      <trkpt lat="49.271" lon="0.09856">
        <ele>95.400001525879</ele>
        <time>2022-08-30T14:32:18Z</time>
      </trkpt>
      <trkpt lat="49.27088" lon="0.09866">
        <ele>95.800003051758</ele>
        <time>2022-08-30T14:32:31Z</time>
      </trkpt>
      <trkpt lat="49.27082" lon="0.09868">
        <ele>96</ele>
        <time>2022-08-30T14:32:36Z</time>
      </trkpt>
      <trkpt lat="49.27067" lon="0.09871">
        <ele>96.199996948242</ele>
        <time>2022-08-30T14:32:49Z</time>
      </trkpt>
      <trkpt lat="49.27041" lon="0.09863">
        <ele>96.599998474121</ele>
        <time>2022-08-30T14:33:14Z</time>
      </trkpt>
      <trkpt lat="49.27027" lon="0.09865">
        <ele>96.800003051758</ele>
        <time>2022-08-30T14:33:27Z</time>
      </trkpt>
      <trkpt lat="49.27019" lon="0.09868">
        <ele>97</ele>
        <time>2022-08-30T14:33:33Z</time>
      </trkpt>
      <trkpt lat="49.27016" lon="0.09868">
        <ele>97</ele>
        <time>2022-08-30T14:33:34Z</time>
      </trkpt>
      <trkpt lat="49.27014" lon="0.09868">
        <ele>97</ele>
        <time>2022-08-30T14:33:35Z</time>
      </trkpt>
      <trkpt lat="49.26993" lon="0.09877">
        <ele>97.199996948242</ele>
        <time>2022-08-30T14:33:48Z</time>
      </trkpt>
      <trkpt lat="49.26992" lon="0.09877">
        <ele>97.199996948242</ele>
        <time>2022-08-30T14:33:49Z</time>
      </trkpt>
      <trkpt lat="49.26981" lon="0.09874">
        <ele>97.599998474121</ele>
        <time>2022-08-30T14:34:01Z</time>
      </trkpt>
      <trkpt lat="49.26976" lon="0.09869">
        <ele>97.599998474121</ele>
        <time>2022-08-30T14:34:07Z</time>
      </trkpt>
      <trkpt lat="49.26968" lon="0.09849">
        <ele>97.599998474121</ele>
        <time>2022-08-30T14:34:23Z</time>
      </trkpt>
      <trkpt lat="49.26964" lon="0.09822">
        <ele>97.199996948242</ele>
        <time>2022-08-30T14:34:39Z</time>
      </trkpt>
      <trkpt lat="49.26964" lon="0.0982">
        <ele>97.199996948242</ele>
        <time>2022-08-30T14:34:40Z</time>
      </trkpt>
      <trkpt lat="49.26959" lon="0.09782">
        <ele>96.800003051758</ele>
        <time>2022-08-30T14:35:01Z</time>
      </trkpt>
      <trkpt lat="49.26956" lon="0.09753">
        <ele>96.599998474121</ele>
        <time>2022-08-30T14:35:16Z</time>
      </trkpt>
      <trkpt lat="49.26955" lon="0.09747">
        <ele>96.800003051758</ele>
        <time>2022-08-30T14:35:19Z</time>
      </trkpt>
      <trkpt lat="49.26953" lon="0.09728">
        <ele>97</ele>
        <time>2022-08-30T14:35:29Z</time>
      </trkpt>
      <trkpt lat="49.26943" lon="0.09707">
        <ele>97.400001525879</ele>
        <time>2022-08-30T14:35:44Z</time>
      </trkpt>
      <trkpt lat="49.26941" lon="0.09703">
        <ele>97.400001525879</ele>
        <time>2022-08-30T14:35:47Z</time>
      </trkpt>
      <trkpt lat="49.2694" lon="0.09701">
        <ele>97.400001525879</ele>
        <time>2022-08-30T14:35:48Z</time>
      </trkpt>
      <trkpt lat="49.26939" lon="0.09699">
        <ele>97.400001525879</ele>
        <time>2022-08-30T14:35:49Z</time>
      </trkpt>
      <trkpt lat="49.26938" lon="0.09696">
        <ele>97.400001525879</ele>
        <time>2022-08-30T14:35:50Z</time>
      </trkpt>
      <trkpt lat="49.26937" lon="0.09693">
        <ele>97.400001525879</ele>
        <time>2022-08-30T14:35:51Z</time>
      </trkpt>
      <trkpt lat="49.26931" lon="0.09684">
        <ele>97.400001525879</ele>
        <time>2022-08-30T14:36:00Z</time>
      </trkpt>
      <trkpt lat="49.2693" lon="0.09683">
        <ele>97.400001525879</ele>
        <time>2022-08-30T14:36:01Z</time>
      </trkpt>
      <trkpt lat="49.2693" lon="0.09681">
        <ele>97.400001525879</ele>
        <time>2022-08-30T14:36:02Z</time>
      </trkpt>
      <trkpt lat="49.26928" lon="0.09679">
        <ele>97.400001525879</ele>
        <time>2022-08-30T14:36:03Z</time>
      </trkpt>
      <trkpt lat="49.26927" lon="0.09677">
        <ele>97.400001525879</ele>
        <time>2022-08-30T14:36:04Z</time>
      </trkpt>
      <trkpt lat="49.26925" lon="0.09674">
        <ele>97.400001525879</ele>
        <time>2022-08-30T14:36:05Z</time>
      </trkpt>
      <trkpt lat="49.26924" lon="0.09672">
        <ele>97.400001525879</ele>
        <time>2022-08-30T14:36:06Z</time>
      </trkpt>
      <trkpt lat="49.26922" lon="0.0967">
        <ele>97.599998474121</ele>
        <time>2022-08-30T14:36:07Z</time>
      </trkpt>
      <trkpt lat="49.26914" lon="0.09658">
        <ele>97.599998474121</ele>
        <time>2022-08-30T14:36:17Z</time>
      </trkpt>
      <trkpt lat="49.26913" lon="0.09656">
        <ele>97.599998474121</ele>
        <time>2022-08-30T14:36:18Z</time>
      </trkpt>
      <trkpt lat="49.26912" lon="0.09653">
        <ele>97.599998474121</ele>
        <time>2022-08-30T14:36:19Z</time>
      </trkpt>
      <trkpt lat="49.2691" lon="0.0965">
        <ele>97.599998474121</ele>
        <time>2022-08-30T14:36:20Z</time>
      </trkpt>
      <trkpt lat="49.26908" lon="0.09648">
        <ele>97.800003051758</ele>
        <time>2022-08-30T14:36:21Z</time>
      </trkpt>
      <trkpt lat="49.26907" lon="0.09646">
        <ele>97.800003051758</ele>
        <time>2022-08-30T14:36:22Z</time>
      </trkpt>
      <trkpt lat="49.26903" lon="0.09635">
        <ele>97.800003051758</ele>
        <time>2022-08-30T14:36:30Z</time>
      </trkpt>
      <trkpt lat="49.26901" lon="0.09632">
        <ele>97.800003051758</ele>
        <time>2022-08-30T14:36:32Z</time>
      </trkpt>
      <trkpt lat="49.26901" lon="0.0963">
        <ele>97.800003051758</ele>
        <time>2022-08-30T14:36:33Z</time>
      </trkpt>
      <trkpt lat="49.269" lon="0.09628">
        <ele>97.800003051758</ele>
        <time>2022-08-30T14:36:34Z</time>
      </trkpt>
      <trkpt lat="49.26891" lon="0.09608">
        <ele>97.800003051758</ele>
        <time>2022-08-30T14:36:45Z</time>
      </trkpt>
      <trkpt lat="49.2689" lon="0.09607">
        <ele>97.800003051758</ele>
        <time>2022-08-30T14:36:46Z</time>
      </trkpt>
      <trkpt lat="49.26889" lon="0.09606">
        <ele>97.800003051758</ele>
        <time>2022-08-30T14:36:47Z</time>
      </trkpt>
      <trkpt lat="49.26888" lon="0.09604">
        <ele>98</ele>
        <time>2022-08-30T14:36:48Z</time>
      </trkpt>
      <trkpt lat="49.26888" lon="0.096">
        <ele>98</ele>
        <time>2022-08-30T14:36:50Z</time>
      </trkpt>
      <trkpt lat="49.26886" lon="0.09589">
        <ele>98</ele>
        <time>2022-08-30T14:36:54Z</time>
      </trkpt>
      <trkpt lat="49.26881" lon="0.09585">
        <ele>98</ele>
        <time>2022-08-30T14:36:59Z</time>
      </trkpt>
      <trkpt lat="49.2688" lon="0.09583">
        <ele>98</ele>
        <time>2022-08-30T14:37:00Z</time>
      </trkpt>
      <trkpt lat="49.26879" lon="0.09582">
        <ele>98</ele>
        <time>2022-08-30T14:37:01Z</time>
      </trkpt>
      <trkpt lat="49.26877" lon="0.09582">
        <ele>98</ele>
        <time>2022-08-30T14:37:02Z</time>
      </trkpt>
      <trkpt lat="49.26876" lon="0.0958">
        <ele>98</ele>
        <time>2022-08-30T14:37:03Z</time>
      </trkpt>
      <trkpt lat="49.26875" lon="0.09579">
        <ele>98</ele>
        <time>2022-08-30T14:37:04Z</time>
      </trkpt>
      <trkpt lat="49.26874" lon="0.09577">
        <ele>98</ele>
        <time>2022-08-30T14:37:05Z</time>
      </trkpt>
      <trkpt lat="49.26873" lon="0.09575">
        <ele>98</ele>
        <time>2022-08-30T14:37:06Z</time>
      </trkpt>
      <trkpt lat="49.26871" lon="0.09572">
        <ele>98.199996948242</ele>
        <time>2022-08-30T14:37:07Z</time>
      </trkpt>
      <trkpt lat="49.26869" lon="0.0957">
        <ele>98.199996948242</ele>
        <time>2022-08-30T14:37:08Z</time>
      </trkpt>
      <trkpt lat="49.26862" lon="0.09555">
        <ele>98.199996948242</ele>
        <time>2022-08-30T14:37:18Z</time>
      </trkpt>
      <trkpt lat="49.26861" lon="0.09554">
        <ele>98.199996948242</ele>
        <time>2022-08-30T14:37:19Z</time>
      </trkpt>
      <trkpt lat="49.2686" lon="0.09552">
        <ele>98.199996948242</ele>
        <time>2022-08-30T14:37:20Z</time>
      </trkpt>
      <trkpt lat="49.2686" lon="0.09551">
        <ele>98</ele>
        <time>2022-08-30T14:37:21Z</time>
      </trkpt>
      <trkpt lat="49.2686" lon="0.09549">
        <ele>98</ele>
        <time>2022-08-30T14:37:22Z</time>
      </trkpt>
      <trkpt lat="49.26859" lon="0.09546">
        <ele>98</ele>
        <time>2022-08-30T14:37:23Z</time>
      </trkpt>
      <trkpt lat="49.26859" lon="0.09543">
        <ele>98</ele>
        <time>2022-08-30T14:37:24Z</time>
      </trkpt>
      <trkpt lat="49.26859" lon="0.0954">
        <ele>98</ele>
        <time>2022-08-30T14:37:25Z</time>
      </trkpt>
      <trkpt lat="49.26859" lon="0.09537">
        <ele>98</ele>
        <time>2022-08-30T14:37:26Z</time>
      </trkpt>
      <trkpt lat="49.26853" lon="0.09523">
        <ele>98</ele>
        <time>2022-08-30T14:37:37Z</time>
      </trkpt>
      <trkpt lat="49.26849" lon="0.09501">
        <ele>98</ele>
        <time>2022-08-30T14:37:47Z</time>
      </trkpt>
      <trkpt lat="49.26848" lon="0.09493">
        <ele>98</ele>
        <time>2022-08-30T14:37:53Z</time>
      </trkpt>
      <trkpt lat="49.26848" lon="0.09491">
        <ele>98</ele>
        <time>2022-08-30T14:37:54Z</time>
      </trkpt>
      <trkpt lat="49.26848" lon="0.09464">
        <ele>97.800003051758</ele>
        <time>2022-08-30T14:38:06Z</time>
      </trkpt>
      <trkpt lat="49.26847" lon="0.09459">
        <ele>97.800003051758</ele>
        <time>2022-08-30T14:38:10Z</time>
      </trkpt>
      <trkpt lat="49.26846" lon="0.09455">
        <ele>97.800003051758</ele>
        <time>2022-08-30T14:38:12Z</time>
      </trkpt>
      <trkpt lat="49.26846" lon="0.09453">
        <ele>97.800003051758</ele>
        <time>2022-08-30T14:38:13Z</time>
      </trkpt>
      <trkpt lat="49.26847" lon="0.0945">
        <ele>97.800003051758</ele>
        <time>2022-08-30T14:38:14Z</time>
      </trkpt>
      <trkpt lat="49.26846" lon="0.09421">
        <ele>97.599998474121</ele>
        <time>2022-08-30T14:38:28Z</time>
      </trkpt>
      <trkpt lat="49.26844" lon="0.09398">
        <ele>97.199996948242</ele>
        <time>2022-08-30T14:38:42Z</time>
      </trkpt>
      <trkpt lat="49.26841" lon="0.09375">
        <ele>96.800003051758</ele>
        <time>2022-08-30T14:38:56Z</time>
      </trkpt>
      <trkpt lat="49.26841" lon="0.09372">
        <ele>96.800003051758</ele>
        <time>2022-08-30T14:38:57Z</time>
      </trkpt>
      <trkpt lat="49.26841" lon="0.09369">
        <ele>96.800003051758</ele>
        <time>2022-08-30T14:38:58Z</time>
      </trkpt>
      <trkpt lat="49.26841" lon="0.09366">
        <ele>96.800003051758</ele>
        <time>2022-08-30T14:38:59Z</time>
      </trkpt>
      <trkpt lat="49.26841" lon="0.09363">
        <ele>96.800003051758</ele>
        <time>2022-08-30T14:39:00Z</time>
      </trkpt>
      <trkpt lat="49.26841" lon="0.09359">
        <ele>96.800003051758</ele>
        <time>2022-08-30T14:39:01Z</time>
      </trkpt>
      <trkpt lat="49.2684" lon="0.09355">
        <ele>96.800003051758</ele>
        <time>2022-08-30T14:39:02Z</time>
      </trkpt>
      <trkpt lat="49.2684" lon="0.09351">
        <ele>96.800003051758</ele>
        <time>2022-08-30T14:39:03Z</time>
      </trkpt>
      <trkpt lat="49.2684" lon="0.09347">
        <ele>96.800003051758</ele>
        <time>2022-08-30T14:39:04Z</time>
      </trkpt>
      <trkpt lat="49.26835" lon="0.09332">
        <ele>96.800003051758</ele>
        <time>2022-08-30T14:39:15Z</time>
      </trkpt>
      <trkpt lat="49.26832" lon="0.09308">
        <ele>96.599998474121</ele>
        <time>2022-08-30T14:39:26Z</time>
      </trkpt>
      <trkpt lat="49.26832" lon="0.09304">
        <ele>96.599998474121</ele>
        <time>2022-08-30T14:39:29Z</time>
      </trkpt>
      <trkpt lat="49.26831" lon="0.093">
        <ele>96.599998474121</ele>
        <time>2022-08-30T14:39:31Z</time>
      </trkpt>
      <trkpt lat="49.26828" lon="0.09279">
        <ele>96.400001525879</ele>
        <time>2022-08-30T14:39:41Z</time>
      </trkpt>
      <trkpt lat="49.26827" lon="0.09276">
        <ele>96.400001525879</ele>
        <time>2022-08-30T14:39:43Z</time>
      </trkpt>
      <trkpt lat="49.26826" lon="0.09275">
        <ele>96.400001525879</ele>
        <time>2022-08-30T14:39:44Z</time>
      </trkpt>
      <trkpt lat="49.26825" lon="0.09273">
        <ele>96.400001525879</ele>
        <time>2022-08-30T14:39:45Z</time>
      </trkpt>
      <trkpt lat="49.26825" lon="0.09271">
        <ele>96.400001525879</ele>
        <time>2022-08-30T14:39:46Z</time>
      </trkpt>
      <trkpt lat="49.26824" lon="0.09269">
        <ele>96.400001525879</ele>
        <time>2022-08-30T14:39:47Z</time>
      </trkpt>
      <trkpt lat="49.26825" lon="0.09265">
        <ele>96.400001525879</ele>
        <time>2022-08-30T14:39:48Z</time>
      </trkpt>
      <trkpt lat="49.26825" lon="0.09262">
        <ele>96.400001525879</ele>
        <time>2022-08-30T14:39:49Z</time>
      </trkpt>
      <trkpt lat="49.26821" lon="0.09249">
        <ele>96.199996948242</ele>
        <time>2022-08-30T14:39:58Z</time>
      </trkpt>
      <trkpt lat="49.2682" lon="0.09245">
        <ele>96.199996948242</ele>
        <time>2022-08-30T14:40:00Z</time>
      </trkpt>
      <trkpt lat="49.2682" lon="0.09243">
        <ele>96.199996948242</ele>
        <time>2022-08-30T14:40:01Z</time>
      </trkpt>
      <trkpt lat="49.26819" lon="0.09241">
        <ele>96.199996948242</ele>
        <time>2022-08-30T14:40:02Z</time>
      </trkpt>
      <trkpt lat="49.26812" lon="0.09222">
        <ele>96.199996948242</ele>
        <time>2022-08-30T14:40:12Z</time>
      </trkpt>
      <trkpt lat="49.26811" lon="0.09199">
        <ele>96.199996948242</ele>
        <time>2022-08-30T14:40:22Z</time>
      </trkpt>
      <trkpt lat="49.26809" lon="0.09191">
        <ele>96</ele>
        <time>2022-08-30T14:40:29Z</time>
      </trkpt>
      <trkpt lat="49.26808" lon="0.09189">
        <ele>96</ele>
        <time>2022-08-30T14:40:30Z</time>
      </trkpt>
      <trkpt lat="49.26808" lon="0.09186">
        <ele>96</ele>
        <time>2022-08-30T14:40:31Z</time>
      </trkpt>
      <trkpt lat="49.26807" lon="0.09184">
        <ele>95.800003051758</ele>
        <time>2022-08-30T14:40:32Z</time>
      </trkpt>
      <trkpt lat="49.26806" lon="0.0918">
        <ele>95.800003051758</ele>
        <time>2022-08-30T14:40:33Z</time>
      </trkpt>
      <trkpt lat="49.26806" lon="0.09177">
        <ele>95.800003051758</ele>
        <time>2022-08-30T14:40:34Z</time>
      </trkpt>
      <trkpt lat="49.26806" lon="0.09175">
        <ele>95.800003051758</ele>
        <time>2022-08-30T14:40:35Z</time>
      </trkpt>
      <trkpt lat="49.26805" lon="0.09168">
        <ele>95.800003051758</ele>
        <time>2022-08-30T14:40:41Z</time>
      </trkpt>
      <trkpt lat="49.26804" lon="0.09166">
        <ele>95.800003051758</ele>
        <time>2022-08-30T14:40:42Z</time>
      </trkpt>
      <trkpt lat="49.26804" lon="0.09165">
        <ele>95.599998474121</ele>
        <time>2022-08-30T14:40:43Z</time>
      </trkpt>
      <trkpt lat="49.26803" lon="0.09163">
        <ele>95.599998474121</ele>
        <time>2022-08-30T14:40:44Z</time>
      </trkpt>
      <trkpt lat="49.26803" lon="0.09161">
        <ele>95.599998474121</ele>
        <time>2022-08-30T14:40:45Z</time>
      </trkpt>
      <trkpt lat="49.26802" lon="0.09139">
        <ele>95.599998474121</ele>
        <time>2022-08-30T14:40:55Z</time>
      </trkpt>
      <trkpt lat="49.268" lon="0.09133">
        <ele>95.400001525879</ele>
        <time>2022-08-30T14:41:00Z</time>
      </trkpt>
      <trkpt lat="49.26799" lon="0.0912">
        <ele>95.400001525879</ele>
        <time>2022-08-30T14:41:06Z</time>
      </trkpt>
      <trkpt lat="49.26798" lon="0.09117">
        <ele>95.199996948242</ele>
        <time>2022-08-30T14:41:07Z</time>
      </trkpt>
      <trkpt lat="49.26797" lon="0.09113">
        <ele>95.199996948242</ele>
        <time>2022-08-30T14:41:08Z</time>
      </trkpt>
      <trkpt lat="49.26797" lon="0.09111">
        <ele>95.199996948242</ele>
        <time>2022-08-30T14:41:09Z</time>
      </trkpt>
      <trkpt lat="49.26797" lon="0.09086">
        <ele>95.199996948242</ele>
        <time>2022-08-30T14:41:23Z</time>
      </trkpt>
      <trkpt lat="49.26796" lon="0.09056">
        <ele>94</ele>
        <time>2022-08-30T14:41:39Z</time>
      </trkpt>
      <trkpt lat="49.26792" lon="0.09028">
        <ele>93.599998474121</ele>
        <time>2022-08-30T14:41:52Z</time>
      </trkpt>
      <trkpt lat="49.26788" lon="0.09003">
        <ele>93.800003051758</ele>
        <time>2022-08-30T14:42:08Z</time>
      </trkpt>
      <trkpt lat="49.26787" lon="0.08997">
        <ele>93.800003051758</ele>
        <time>2022-08-30T14:42:12Z</time>
      </trkpt>
      <trkpt lat="49.26782" lon="0.08974">
        <ele>93.599998474121</ele>
        <time>2022-08-30T14:42:23Z</time>
      </trkpt>
      <trkpt lat="49.26774" lon="0.08957">
        <ele>93.599998474121</ele>
        <time>2022-08-30T14:42:35Z</time>
      </trkpt>
      <trkpt lat="49.26764" lon="0.08935">
        <ele>93.800003051758</ele>
        <time>2022-08-30T14:42:51Z</time>
      </trkpt>
      <trkpt lat="49.26762" lon="0.08931">
        <ele>93.800003051758</ele>
        <time>2022-08-30T14:42:54Z</time>
      </trkpt>
      <trkpt lat="49.26762" lon="0.08929">
        <ele>93.800003051758</ele>
        <time>2022-08-30T14:42:55Z</time>
      </trkpt>
      <trkpt lat="49.26761" lon="0.08927">
        <ele>94</ele>
        <time>2022-08-30T14:42:56Z</time>
      </trkpt>
      <trkpt lat="49.2676" lon="0.08925">
        <ele>94</ele>
        <time>2022-08-30T14:42:57Z</time>
      </trkpt>
      <trkpt lat="49.2675" lon="0.08905">
        <ele>94.400001525879</ele>
        <time>2022-08-30T14:43:12Z</time>
      </trkpt>
      <trkpt lat="49.26745" lon="0.08896">
        <ele>94.599998474121</ele>
        <time>2022-08-30T14:43:39Z</time>
      </trkpt>
      <trkpt lat="49.26734" lon="0.08872">
        <ele>94.800003051758</ele>
        <time>2022-08-30T14:43:57Z</time>
      </trkpt>
      <trkpt lat="49.26721" lon="0.08845">
        <ele>94.800003051758</ele>
        <time>2022-08-30T14:44:13Z</time>
      </trkpt>
      <trkpt lat="49.26709" lon="0.08813">
        <ele>94.599998474121</ele>
        <time>2022-08-30T14:44:34Z</time>
      </trkpt>
      <trkpt lat="49.267" lon="0.08788">
        <ele>94.400001525879</ele>
        <time>2022-08-30T14:44:49Z</time>
      </trkpt>
      <trkpt lat="49.26693" lon="0.08765">
        <ele>94.199996948242</ele>
        <time>2022-08-30T14:45:00Z</time>
      </trkpt>
      <trkpt lat="49.26692" lon="0.08763">
        <ele>94.199996948242</ele>
        <time>2022-08-30T14:45:01Z</time>
      </trkpt>
      <trkpt lat="49.26691" lon="0.08761">
        <ele>94.199996948242</ele>
        <time>2022-08-30T14:45:02Z</time>
      </trkpt>
      <trkpt lat="49.26678" lon="0.08732">
        <ele>94.199996948242</ele>
        <time>2022-08-30T14:45:20Z</time>
      </trkpt>
      <trkpt lat="49.26664" lon="0.08714">
        <ele>93.800003051758</ele>
        <time>2022-08-30T14:45:33Z</time>
      </trkpt>
      <trkpt lat="49.26662" lon="0.08709">
        <ele>93.800003051758</ele>
        <time>2022-08-30T14:45:37Z</time>
      </trkpt>
      <trkpt lat="49.26661" lon="0.08706">
        <ele>93.800003051758</ele>
        <time>2022-08-30T14:45:39Z</time>
      </trkpt>
      <trkpt lat="49.2666" lon="0.08705">
        <ele>93.599998474121</ele>
        <time>2022-08-30T14:45:40Z</time>
      </trkpt>
      <trkpt lat="49.26654" lon="0.08698">
        <ele>93.400001525879</ele>
        <time>2022-08-30T14:45:47Z</time>
      </trkpt>
      <trkpt lat="49.26653" lon="0.08696">
        <ele>93.199996948242</ele>
        <time>2022-08-30T14:45:48Z</time>
      </trkpt>
      <trkpt lat="49.26652" lon="0.08694">
        <ele>93.199996948242</ele>
        <time>2022-08-30T14:45:49Z</time>
      </trkpt>
      <trkpt lat="49.26635" lon="0.08667">
        <ele>92.400001525879</ele>
        <time>2022-08-30T14:46:07Z</time>
      </trkpt>
      <trkpt lat="49.26632" lon="0.0866">
        <ele>92</ele>
        <time>2022-08-30T14:46:12Z</time>
      </trkpt>
      <trkpt lat="49.26632" lon="0.08657">
        <ele>91.800003051758</ele>
        <time>2022-08-30T14:46:13Z</time>
      </trkpt>
      <trkpt lat="49.26633" lon="0.08653">
        <ele>91.400001525879</ele>
        <time>2022-08-30T14:46:15Z</time>
      </trkpt>
      <trkpt lat="49.26634" lon="0.08651">
        <ele>91.400001525879</ele>
        <time>2022-08-30T14:46:16Z</time>
      </trkpt>
      <trkpt lat="49.26635" lon="0.08649">
        <ele>91.400001525879</ele>
        <time>2022-08-30T14:46:17Z</time>
      </trkpt>
      <trkpt lat="49.26636" lon="0.08648">
        <ele>91.199996948242</ele>
        <time>2022-08-30T14:46:18Z</time>
      </trkpt>
      <trkpt lat="49.26653" lon="0.08628">
        <ele>91.400001525879</ele>
        <time>2022-08-30T14:46:35Z</time>
      </trkpt>
      <trkpt lat="49.26655" lon="0.08627">
        <ele>91.599998474121</ele>
        <time>2022-08-30T14:46:37Z</time>
      </trkpt>
      <trkpt lat="49.26657" lon="0.08627">
        <ele>91.800003051758</ele>
        <time>2022-08-30T14:46:38Z</time>
      </trkpt>
      <trkpt lat="49.26659" lon="0.08625">
        <ele>91.800003051758</ele>
        <time>2022-08-30T14:46:40Z</time>
      </trkpt>
      <trkpt lat="49.2666" lon="0.08625">
        <ele>92</ele>
        <time>2022-08-30T14:46:41Z</time>
      </trkpt>
      <trkpt lat="49.26662" lon="0.08624">
        <ele>92</ele>
        <time>2022-08-30T14:46:42Z</time>
      </trkpt>
      <trkpt lat="49.26663" lon="0.08623">
        <ele>92</ele>
        <time>2022-08-30T14:46:43Z</time>
      </trkpt>
      <trkpt lat="49.26664" lon="0.08622">
        <ele>92</ele>
        <time>2022-08-30T14:46:44Z</time>
      </trkpt>
      <trkpt lat="49.26665" lon="0.08622">
        <ele>92</ele>
        <time>2022-08-30T14:46:45Z</time>
      </trkpt>
      <trkpt lat="49.26667" lon="0.08623">
        <ele>92</ele>
        <time>2022-08-30T14:46:46Z</time>
      </trkpt>
      <trkpt lat="49.26668" lon="0.08622">
        <ele>92</ele>
        <time>2022-08-30T14:46:47Z</time>
      </trkpt>
      <trkpt lat="49.2667" lon="0.0862">
        <ele>92</ele>
        <time>2022-08-30T14:46:48Z</time>
      </trkpt>
      <trkpt lat="49.26672" lon="0.08617">
        <ele>92.199996948242</ele>
        <time>2022-08-30T14:46:49Z</time>
      </trkpt>
      <trkpt lat="49.26673" lon="0.08616">
        <ele>92.199996948242</ele>
        <time>2022-08-30T14:46:50Z</time>
      </trkpt>
      <trkpt lat="49.26674" lon="0.08615">
        <ele>92.199996948242</ele>
        <time>2022-08-30T14:46:51Z</time>
      </trkpt>
      <trkpt lat="49.26675" lon="0.08613">
        <ele>92.199996948242</ele>
        <time>2022-08-30T14:46:52Z</time>
      </trkpt>
      <trkpt lat="49.26678" lon="0.08611">
        <ele>92.199996948242</ele>
        <time>2022-08-30T14:46:56Z</time>
      </trkpt>
      <trkpt lat="49.26682" lon="0.08603">
        <ele>92.199996948242</ele>
        <time>2022-08-30T14:47:01Z</time>
      </trkpt>
      <trkpt lat="49.26683" lon="0.08602">
        <ele>92.199996948242</ele>
        <time>2022-08-30T14:47:02Z</time>
      </trkpt>
      <trkpt lat="49.26685" lon="0.08601">
        <ele>92.199996948242</ele>
        <time>2022-08-30T14:47:03Z</time>
      </trkpt>
      <trkpt lat="49.26685" lon="0.08598">
        <ele>92.199996948242</ele>
        <time>2022-08-30T14:47:04Z</time>
      </trkpt>
      <trkpt lat="49.26686" lon="0.08597">
        <ele>92.400001525879</ele>
        <time>2022-08-30T14:47:05Z</time>
      </trkpt>
      <trkpt lat="49.26687" lon="0.08596">
        <ele>92.400001525879</ele>
        <time>2022-08-30T14:47:06Z</time>
      </trkpt>
      <trkpt lat="49.26692" lon="0.08589">
        <ele>92.400001525879</ele>
        <time>2022-08-30T14:47:09Z</time>
      </trkpt>
      <trkpt lat="49.26693" lon="0.08589">
        <ele>92.400001525879</ele>
        <time>2022-08-30T14:47:10Z</time>
      </trkpt>
      <trkpt lat="49.26694" lon="0.08587">
        <ele>92.400001525879</ele>
        <time>2022-08-30T14:47:11Z</time>
      </trkpt>
      <trkpt lat="49.26696" lon="0.08586">
        <ele>92.400001525879</ele>
        <time>2022-08-30T14:47:12Z</time>
      </trkpt>
      <trkpt lat="49.26697" lon="0.08585">
        <ele>92.400001525879</ele>
        <time>2022-08-30T14:47:13Z</time>
      </trkpt>
      <trkpt lat="49.26698" lon="0.08584">
        <ele>92.400001525879</ele>
        <time>2022-08-30T14:47:14Z</time>
      </trkpt>
      <trkpt lat="49.26699" lon="0.08583">
        <ele>92.400001525879</ele>
        <time>2022-08-30T14:47:15Z</time>
      </trkpt>
      <trkpt lat="49.26704" lon="0.08582">
        <ele>92.599998474121</ele>
        <time>2022-08-30T14:47:21Z</time>
      </trkpt>
      <trkpt lat="49.26705" lon="0.0858">
        <ele>92.599998474121</ele>
        <time>2022-08-30T14:47:22Z</time>
      </trkpt>
      <trkpt lat="49.26708" lon="0.08573">
        <ele>92.599998474121</ele>
        <time>2022-08-30T14:47:27Z</time>
      </trkpt>
      <trkpt lat="49.26712" lon="0.0856">
        <ele>92.599998474121</ele>
        <time>2022-08-30T14:47:32Z</time>
      </trkpt>
      <trkpt lat="49.26714" lon="0.08559">
        <ele>92.599998474121</ele>
        <time>2022-08-30T14:47:33Z</time>
      </trkpt>
      <trkpt lat="49.26716" lon="0.08559">
        <ele>92.599998474121</ele>
        <time>2022-08-30T14:47:34Z</time>
      </trkpt>
      <trkpt lat="49.2673" lon="0.08543">
        <ele>92.400001525879</ele>
        <time>2022-08-30T14:47:45Z</time>
      </trkpt>
      <trkpt lat="49.26733" lon="0.08546">
        <ele>92.400001525879</ele>
        <time>2022-08-30T14:47:48Z</time>
      </trkpt>
      <trkpt lat="49.26734" lon="0.08547">
        <ele>92.400001525879</ele>
        <time>2022-08-30T14:47:49Z</time>
      </trkpt>
      <trkpt lat="49.26736" lon="0.08544">
        <ele>92.400001525879</ele>
        <time>2022-08-30T14:47:52Z</time>
      </trkpt>
      <trkpt lat="49.26737" lon="0.08543">
        <ele>92.199996948242</ele>
        <time>2022-08-30T14:47:53Z</time>
      </trkpt>
      <trkpt lat="49.26738" lon="0.08541">
        <ele>92.199996948242</ele>
        <time>2022-08-30T14:47:54Z</time>
      </trkpt>
      <trkpt lat="49.26739" lon="0.08541">
        <ele>92.199996948242</ele>
        <time>2022-08-30T14:47:55Z</time>
      </trkpt>
      <trkpt lat="49.2674" lon="0.0854">
        <ele>92.199996948242</ele>
        <time>2022-08-30T14:47:56Z</time>
      </trkpt>
      <trkpt lat="49.26742" lon="0.08539">
        <ele>92.199996948242</ele>
        <time>2022-08-30T14:47:57Z</time>
      </trkpt>
      <trkpt lat="49.26743" lon="0.08538">
        <ele>92.199996948242</ele>
        <time>2022-08-30T14:47:58Z</time>
      </trkpt>
      <trkpt lat="49.26744" lon="0.08537">
        <ele>92.199996948242</ele>
        <time>2022-08-30T14:47:59Z</time>
      </trkpt>
      <trkpt lat="49.26746" lon="0.08536">
        <ele>92.199996948242</ele>
        <time>2022-08-30T14:48:00Z</time>
      </trkpt>
      <trkpt lat="49.2675" lon="0.08535">
        <ele>92.199996948242</ele>
        <time>2022-08-30T14:48:03Z</time>
      </trkpt>
      <trkpt lat="49.26751" lon="0.08532">
        <ele>92.199996948242</ele>
        <time>2022-08-30T14:48:04Z</time>
      </trkpt>
      <trkpt lat="49.26752" lon="0.08529">
        <ele>92.199996948242</ele>
        <time>2022-08-30T14:48:05Z</time>
      </trkpt>
      <trkpt lat="49.26752" lon="0.08524">
        <ele>92.199996948242</ele>
        <time>2022-08-30T14:48:06Z</time>
      </trkpt>
      <trkpt lat="49.26752" lon="0.08519">
        <ele>92.199996948242</ele>
        <time>2022-08-30T14:48:07Z</time>
      </trkpt>
      <trkpt lat="49.26754" lon="0.08517">
        <ele>92.199996948242</ele>
        <time>2022-08-30T14:48:08Z</time>
      </trkpt>
      <trkpt lat="49.26755" lon="0.08514">
        <ele>92.199996948242</ele>
        <time>2022-08-30T14:48:09Z</time>
      </trkpt>
      <trkpt lat="49.26757" lon="0.08514">
        <ele>92.199996948242</ele>
        <time>2022-08-30T14:48:10Z</time>
      </trkpt>
      <trkpt lat="49.26758" lon="0.08514">
        <ele>92.199996948242</ele>
        <time>2022-08-30T14:48:11Z</time>
      </trkpt>
      <trkpt lat="49.26769" lon="0.08515">
        <ele>92.400001525879</ele>
        <time>2022-08-30T14:48:23Z</time>
      </trkpt>
      <trkpt lat="49.2677" lon="0.08515">
        <ele>92.400001525879</ele>
        <time>2022-08-30T14:48:24Z</time>
      </trkpt>
      <trkpt lat="49.26792" lon="0.08508">
        <ele>92.400001525879</ele>
        <time>2022-08-30T14:48:39Z</time>
      </trkpt>
      <trkpt lat="49.26793" lon="0.08507">
        <ele>92.400001525879</ele>
        <time>2022-08-30T14:48:40Z</time>
      </trkpt>
      <trkpt lat="49.26794" lon="0.08506">
        <ele>92.400001525879</ele>
        <time>2022-08-30T14:48:41Z</time>
      </trkpt>
      <trkpt lat="49.26795" lon="0.08506">
        <ele>92.400001525879</ele>
        <time>2022-08-30T14:48:42Z</time>
      </trkpt>
      <trkpt lat="49.26796" lon="0.08505">
        <ele>92.400001525879</ele>
        <time>2022-08-30T14:48:43Z</time>
      </trkpt>
      <trkpt lat="49.26797" lon="0.08504">
        <ele>92.400001525879</ele>
        <time>2022-08-30T14:48:44Z</time>
      </trkpt>
      <trkpt lat="49.26799" lon="0.08504">
        <ele>92.400001525879</ele>
        <time>2022-08-30T14:48:45Z</time>
      </trkpt>
      <trkpt lat="49.26799" lon="0.08503">
        <ele>92.400001525879</ele>
        <time>2022-08-30T14:48:46Z</time>
      </trkpt>
      <trkpt lat="49.26801" lon="0.08504">
        <ele>92.400001525879</ele>
        <time>2022-08-30T14:48:47Z</time>
      </trkpt>
      <trkpt lat="49.26802" lon="0.08504">
        <ele>92.400001525879</ele>
        <time>2022-08-30T14:48:48Z</time>
      </trkpt>
      <trkpt lat="49.26812" lon="0.08494">
        <ele>91.800003051758</ele>
        <time>2022-08-30T14:48:59Z</time>
      </trkpt>
      <trkpt lat="49.2684" lon="0.08486">
        <ele>91.400001525879</ele>
        <time>2022-08-30T14:49:20Z</time>
      </trkpt>
      <trkpt lat="49.26848" lon="0.08485">
        <ele>91.400001525879</ele>
        <time>2022-08-30T14:49:27Z</time>
      </trkpt>
      <trkpt lat="49.26874" lon="0.08476">
        <ele>91.199996948242</ele>
        <time>2022-08-30T14:49:47Z</time>
      </trkpt>
      <trkpt lat="49.26892" lon="0.08471">
        <ele>91.199996948242</ele>
        <time>2022-08-30T14:49:58Z</time>
      </trkpt>
      <trkpt lat="49.26899" lon="0.08471">
        <ele>91.599998474121</ele>
        <time>2022-08-30T14:50:05Z</time>
      </trkpt>
      <trkpt lat="49.26902" lon="0.08469">
        <ele>91.599998474121</ele>
        <time>2022-08-30T14:50:08Z</time>
      </trkpt>
      <trkpt lat="49.26916" lon="0.08468">
        <ele>91.400001525879</ele>
        <time>2022-08-30T14:50:18Z</time>
      </trkpt>
      <trkpt lat="49.26917" lon="0.08468">
        <ele>91.400001525879</ele>
        <time>2022-08-30T14:50:19Z</time>
      </trkpt>
      <trkpt lat="49.26919" lon="0.08469">
        <ele>91.400001525879</ele>
        <time>2022-08-30T14:50:20Z</time>
      </trkpt>
      <trkpt lat="49.2692" lon="0.08469">
        <ele>91.199996948242</ele>
        <time>2022-08-30T14:50:21Z</time>
      </trkpt>
      <trkpt lat="49.26921" lon="0.08468">
        <ele>91.199996948242</ele>
        <time>2022-08-30T14:50:22Z</time>
      </trkpt>
      <trkpt lat="49.26923" lon="0.08468">
        <ele>91.199996948242</ele>
        <time>2022-08-30T14:50:23Z</time>
      </trkpt>
      <trkpt lat="49.26924" lon="0.08468">
        <ele>91.199996948242</ele>
        <time>2022-08-30T14:50:24Z</time>
      </trkpt>
      <trkpt lat="49.26925" lon="0.08468">
        <ele>91.199996948242</ele>
        <time>2022-08-30T14:50:25Z</time>
      </trkpt>
      <trkpt lat="49.26927" lon="0.08468">
        <ele>91.199996948242</ele>
        <time>2022-08-30T14:50:26Z</time>
      </trkpt>
      <trkpt lat="49.26928" lon="0.08468">
        <ele>91.199996948242</ele>
        <time>2022-08-30T14:50:27Z</time>
      </trkpt>
      <trkpt lat="49.2693" lon="0.08468">
        <ele>91.199996948242</ele>
        <time>2022-08-30T14:50:28Z</time>
      </trkpt>
      <trkpt lat="49.2695" lon="0.08467">
        <ele>91</ele>
        <time>2022-08-30T14:50:43Z</time>
      </trkpt>
      <trkpt lat="49.26965" lon="0.08464">
        <ele>90.800003051758</ele>
        <time>2022-08-30T14:50:56Z</time>
      </trkpt>
      <trkpt lat="49.2698" lon="0.0846">
        <ele>90.800003051758</ele>
        <time>2022-08-30T14:51:09Z</time>
      </trkpt>
      <trkpt lat="49.27005" lon="0.08454">
        <ele>90.400001525879</ele>
        <time>2022-08-30T14:51:28Z</time>
      </trkpt>
      <trkpt lat="49.27027" lon="0.08452">
        <ele>90.400001525879</ele>
        <time>2022-08-30T14:51:43Z</time>
      </trkpt>
      <trkpt lat="49.27049" lon="0.08448">
        <ele>90.199996948242</ele>
        <time>2022-08-30T14:51:58Z</time>
      </trkpt>
      <trkpt lat="49.27068" lon="0.08444">
        <ele>90</ele>
        <time>2022-08-30T14:52:15Z</time>
      </trkpt>
      <trkpt lat="49.27073" lon="0.08443">
        <ele>90</ele>
        <time>2022-08-30T14:52:19Z</time>
      </trkpt>
      <trkpt lat="49.27074" lon="0.08443">
        <ele>90</ele>
        <time>2022-08-30T14:52:20Z</time>
      </trkpt>
      <trkpt lat="49.27075" lon="0.08442">
        <ele>90</ele>
        <time>2022-08-30T14:52:21Z</time>
      </trkpt>
      <trkpt lat="49.27077" lon="0.08443">
        <ele>89.800003051758</ele>
        <time>2022-08-30T14:52:22Z</time>
      </trkpt>
      <trkpt lat="49.27078" lon="0.08443">
        <ele>89.800003051758</ele>
        <time>2022-08-30T14:52:23Z</time>
      </trkpt>
      <trkpt lat="49.27102" lon="0.0844">
        <ele>89.599998474121</ele>
        <time>2022-08-30T14:52:42Z</time>
      </trkpt>
      <trkpt lat="49.27121" lon="0.08437">
        <ele>89.400001525879</ele>
        <time>2022-08-30T14:52:57Z</time>
      </trkpt>
      <trkpt lat="49.27138" lon="0.08438">
        <ele>88.599998474121</ele>
        <time>2022-08-30T14:53:15Z</time>
      </trkpt>
      <trkpt lat="49.27138" lon="0.08428">
        <ele>88.199996948242</ele>
        <time>2022-08-30T14:53:32Z</time>
      </trkpt>
      <trkpt lat="49.27138" lon="0.08395">
        <ele>88.599998474121</ele>
        <time>2022-08-30T14:53:53Z</time>
      </trkpt>
      <trkpt lat="49.27141" lon="0.08356">
        <ele>89</ele>
        <time>2022-08-30T14:54:20Z</time>
      </trkpt>
      <trkpt lat="49.27148" lon="0.08315">
        <ele>88.800003051758</ele>
        <time>2022-08-30T14:54:44Z</time>
      </trkpt>
      <trkpt lat="49.27153" lon="0.08277">
        <ele>87.599998474121</ele>
        <time>2022-08-30T14:55:08Z</time>
      </trkpt>
      <trkpt lat="49.27156" lon="0.08225">
        <ele>86.199996948242</ele>
        <time>2022-08-30T14:55:34Z</time>
      </trkpt>
      <trkpt lat="49.27154" lon="0.08197">
        <ele>84.400001525879</ele>
        <time>2022-08-30T14:55:48Z</time>
      </trkpt>
      <trkpt lat="49.27155" lon="0.08163">
        <ele>81.400001525879</ele>
        <time>2022-08-30T14:56:06Z</time>
      </trkpt>
      <trkpt lat="49.2716" lon="0.0814">
        <ele>78.400001525879</ele>
        <time>2022-08-30T14:56:19Z</time>
      </trkpt>
      <trkpt lat="49.27168" lon="0.0812">
        <ele>75.199996948242</ele>
        <time>2022-08-30T14:56:38Z</time>
      </trkpt>
      <trkpt lat="49.27174" lon="0.08099">
        <ele>72</ele>
        <time>2022-08-30T14:56:52Z</time>
      </trkpt>
      <trkpt lat="49.27174" lon="0.08085">
        <ele>69</ele>
        <time>2022-08-30T14:57:05Z</time>
      </trkpt>
      <trkpt lat="49.2717" lon="0.08065">
        <ele>65.800003051758</ele>
        <time>2022-08-30T14:57:24Z</time>
      </trkpt>
      <trkpt lat="49.27169" lon="0.08058">
        <ele>64.599998474121</ele>
        <time>2022-08-30T14:57:30Z</time>
      </trkpt>
      <trkpt lat="49.27168" lon="0.08054">
        <ele>63.799999237061</ele>
        <time>2022-08-30T14:57:33Z</time>
      </trkpt>
      <trkpt lat="49.27166" lon="0.08048">
        <ele>63.200000762939</ele>
        <time>2022-08-30T14:57:38Z</time>
      </trkpt>
      <trkpt lat="49.27158" lon="0.08048">
        <ele>63</ele>
        <time>2022-08-30T14:58:14Z</time>
      </trkpt>
      <trkpt lat="49.27144" lon="0.08051">
        <ele>60</ele>
        <time>2022-08-30T14:58:33Z</time>
      </trkpt>
      <trkpt lat="49.27147" lon="0.08051">
        <ele>59.799999237061</ele>
        <time>2022-08-30T14:58:57Z</time>
      </trkpt>
      <trkpt lat="49.27128" lon="0.08025">
        <ele>61.599998474121</ele>
        <time>2022-08-30T14:59:22Z</time>
      </trkpt>
      <trkpt lat="49.2712" lon="0.08003">
        <ele>64.599998474121</ele>
        <time>2022-08-30T14:59:38Z</time>
      </trkpt>
      <trkpt lat="49.27114" lon="0.07984">
        <ele>67.800003051758</ele>
        <time>2022-08-30T14:59:55Z</time>
      </trkpt>
      <trkpt lat="49.27109" lon="0.07969">
        <ele>70.800003051758</ele>
        <time>2022-08-30T15:00:11Z</time>
      </trkpt>
      <trkpt lat="49.27103" lon="0.07949">
        <ele>73.599998474121</ele>
        <time>2022-08-30T15:00:27Z</time>
      </trkpt>
      <trkpt lat="49.27096" lon="0.07934">
        <ele>76.199996948242</ele>
        <time>2022-08-30T15:00:43Z</time>
      </trkpt>
      <trkpt lat="49.27091" lon="0.07923">
        <ele>77.800003051758</ele>
        <time>2022-08-30T15:00:54Z</time>
      </trkpt>
      <trkpt lat="49.27089" lon="0.07912">
        <ele>79.199996948242</ele>
        <time>2022-08-30T15:01:02Z</time>
      </trkpt>
      <trkpt lat="49.27091" lon="0.07894">
        <ele>81.400001525879</ele>
        <time>2022-08-30T15:01:14Z</time>
      </trkpt>
      <trkpt lat="49.27094" lon="0.0785">
        <ele>83.800003051758</ele>
        <time>2022-08-30T15:01:39Z</time>
      </trkpt>
      <trkpt lat="49.27094" lon="0.07826">
        <ele>84.199996948242</ele>
        <time>2022-08-30T15:01:53Z</time>
      </trkpt>
      <trkpt lat="49.27094" lon="0.07804">
        <ele>84.400001525879</ele>
        <time>2022-08-30T15:02:10Z</time>
      </trkpt>
      <trkpt lat="49.27092" lon="0.0778">
        <ele>84</ele>
        <time>2022-08-30T15:02:25Z</time>
      </trkpt>
      <trkpt lat="49.27089" lon="0.07745">
        <ele>83.400001525879</ele>
        <time>2022-08-30T15:02:47Z</time>
      </trkpt>
      <trkpt lat="49.27095" lon="0.07738">
        <ele>83.400001525879</ele>
        <time>2022-08-30T15:02:54Z</time>
      </trkpt>
      <trkpt lat="49.2711" lon="0.07717">
        <ele>83.400001525879</ele>
        <time>2022-08-30T15:03:13Z</time>
      </trkpt>
      <trkpt lat="49.27137" lon="0.07695">
        <ele>83.800003051758</ele>
        <time>2022-08-30T15:03:37Z</time>
      </trkpt>
      <trkpt lat="49.27162" lon="0.07688">
        <ele>84.400001525879</ele>
        <time>2022-08-30T15:04:00Z</time>
      </trkpt>
      <trkpt lat="49.27172" lon="0.07683">
        <ele>84.400001525879</ele>
        <time>2022-08-30T15:04:10Z</time>
      </trkpt>
      <trkpt lat="49.27192" lon="0.07676">
        <ele>84.400001525879</ele>
        <time>2022-08-30T15:04:27Z</time>
      </trkpt>
      <trkpt lat="49.2721" lon="0.07677">
        <ele>84.599998474121</ele>
        <time>2022-08-30T15:04:48Z</time>
      </trkpt>
      <trkpt lat="49.27243" lon="0.07676">
        <ele>85.199996948242</ele>
        <time>2022-08-30T15:05:12Z</time>
      </trkpt>
      <trkpt lat="49.27251" lon="0.07676">
        <ele>85.199996948242</ele>
        <time>2022-08-30T15:05:18Z</time>
      </trkpt>
      <trkpt lat="49.27255" lon="0.07672">
        <ele>85.400001525879</ele>
        <time>2022-08-30T15:05:22Z</time>
      </trkpt>
      <trkpt lat="49.27257" lon="0.0767">
        <ele>85.400001525879</ele>
        <time>2022-08-30T15:05:24Z</time>
      </trkpt>
      <trkpt lat="49.27271" lon="0.07646">
        <ele>84.800003051758</ele>
        <time>2022-08-30T15:05:42Z</time>
      </trkpt>
      <trkpt lat="49.27287" lon="0.07623">
        <ele>83.599998474121</ele>
        <time>2022-08-30T15:05:57Z</time>
      </trkpt>
      <trkpt lat="49.27307" lon="0.07595">
        <ele>81</ele>
        <time>2022-08-30T15:06:19Z</time>
      </trkpt>
      <trkpt lat="49.27315" lon="0.07581">
        <ele>80.199996948242</ele>
        <time>2022-08-30T15:06:30Z</time>
      </trkpt>
      <trkpt lat="49.27319" lon="0.07574">
        <ele>79.599998474121</ele>
        <time>2022-08-30T15:06:35Z</time>
      </trkpt>
      <trkpt lat="49.2732" lon="0.07573">
        <ele>79.400001525879</ele>
        <time>2022-08-30T15:06:36Z</time>
      </trkpt>
      <trkpt lat="49.27334" lon="0.07548">
        <ele>77.199996948242</ele>
        <time>2022-08-30T15:06:54Z</time>
      </trkpt>
      <trkpt lat="49.27351" lon="0.07521">
        <ele>74</ele>
        <time>2022-08-30T15:07:14Z</time>
      </trkpt>
      <trkpt lat="49.27363" lon="0.07499">
        <ele>71</ele>
        <time>2022-08-30T15:07:29Z</time>
      </trkpt>
      <trkpt lat="49.27379" lon="0.07473">
        <ele>68</ele>
        <time>2022-08-30T15:07:49Z</time>
      </trkpt>
      <trkpt lat="49.27403" lon="0.07449">
        <ele>64.800003051758</ele>
        <time>2022-08-30T15:08:13Z</time>
      </trkpt>
      <trkpt lat="49.27407" lon="0.07446">
        <ele>64.199996948242</ele>
        <time>2022-08-30T15:08:17Z</time>
      </trkpt>
      <trkpt lat="49.27423" lon="0.07433">
        <ele>62</ele>
        <time>2022-08-30T15:08:32Z</time>
      </trkpt>
      <trkpt lat="49.27446" lon="0.07418">
        <ele>60.200000762939</ele>
        <time>2022-08-30T15:08:55Z</time>
      </trkpt>
      <trkpt lat="49.27448" lon="0.07418">
        <ele>60</ele>
        <time>2022-08-30T15:08:56Z</time>
      </trkpt>
      <trkpt lat="49.27449" lon="0.07417">
        <ele>60</ele>
        <time>2022-08-30T15:08:57Z</time>
      </trkpt>
      <trkpt lat="49.2745" lon="0.07417">
        <ele>59.799999237061</ele>
        <time>2022-08-30T15:08:58Z</time>
      </trkpt>
      <trkpt lat="49.27451" lon="0.07417">
        <ele>59.799999237061</ele>
        <time>2022-08-30T15:08:59Z</time>
      </trkpt>
      <trkpt lat="49.2746" lon="0.07411">
        <ele>59</ele>
        <time>2022-08-30T15:09:07Z</time>
      </trkpt>
      <trkpt lat="49.27489" lon="0.07393">
        <ele>57.400001525879</ele>
        <time>2022-08-30T15:09:32Z</time>
      </trkpt>
      <trkpt lat="49.27518" lon="0.0738">
        <ele>55.799999237061</ele>
        <time>2022-08-30T15:09:57Z</time>
      </trkpt>
      <trkpt lat="49.27545" lon="0.07379">
        <ele>53.799999237061</ele>
        <time>2022-08-30T15:10:22Z</time>
      </trkpt>
      <trkpt lat="49.27575" lon="0.07384">
        <ele>54</ele>
        <time>2022-08-30T15:10:50Z</time>
      </trkpt>
      <trkpt lat="49.276" lon="0.07394">
        <ele>53.200000762939</ele>
        <time>2022-08-30T15:11:13Z</time>
      </trkpt>
      <trkpt lat="49.27631" lon="0.07404">
        <ele>52.400001525879</ele>
        <time>2022-08-30T15:11:41Z</time>
      </trkpt>
      <trkpt lat="49.27651" lon="0.07414">
        <ele>52.200000762939</ele>
        <time>2022-08-30T15:12:00Z</time>
      </trkpt>
      <trkpt lat="49.27682" lon="0.07426">
        <ele>52.200000762939</ele>
        <time>2022-08-30T15:12:25Z</time>
      </trkpt>
      <trkpt lat="49.27687" lon="0.07426">
        <ele>52.200000762939</ele>
        <time>2022-08-30T15:12:27Z</time>
      </trkpt>
      <trkpt lat="49.27693" lon="0.07427">
        <ele>52.200000762939</ele>
        <time>2022-08-30T15:12:31Z</time>
      </trkpt>
      <trkpt lat="49.27698" lon="0.07428">
        <ele>52.400001525879</ele>
        <time>2022-08-30T15:12:35Z</time>
      </trkpt>
      <trkpt lat="49.27702" lon="0.07427">
        <ele>52.400001525879</ele>
        <time>2022-08-30T15:12:37Z</time>
      </trkpt>
      <trkpt lat="49.27709" lon="0.07429">
        <ele>52.400001525879</ele>
        <time>2022-08-30T15:12:43Z</time>
      </trkpt>
      <trkpt lat="49.27728" lon="0.07434">
        <ele>52</ele>
        <time>2022-08-30T15:13:05Z</time>
      </trkpt>
      <trkpt lat="49.27741" lon="0.0744">
        <ele>52</ele>
        <time>2022-08-30T15:13:20Z</time>
      </trkpt>
      <trkpt lat="49.27742" lon="0.07441">
        <ele>52</ele>
        <time>2022-08-30T15:13:21Z</time>
      </trkpt>
      <trkpt lat="49.27746" lon="0.07442">
        <ele>52</ele>
        <time>2022-08-30T15:13:24Z</time>
      </trkpt>
      <trkpt lat="49.27763" lon="0.07456">
        <ele>52</ele>
        <time>2022-08-30T15:13:38Z</time>
      </trkpt>
      <trkpt lat="49.27764" lon="0.07458">
        <ele>52</ele>
        <time>2022-08-30T15:13:40Z</time>
      </trkpt>
      <trkpt lat="49.27776" lon="0.07479">
        <ele>52.400001525879</ele>
        <time>2022-08-30T15:13:54Z</time>
      </trkpt>
      <trkpt lat="49.27794" lon="0.0748">
        <ele>53</ele>
        <time>2022-08-30T15:14:11Z</time>
      </trkpt>
      <trkpt lat="49.27795" lon="0.07479">
        <ele>53</ele>
        <time>2022-08-30T15:14:12Z</time>
      </trkpt>
      <trkpt lat="49.27796" lon="0.07479">
        <ele>53</ele>
        <time>2022-08-30T15:14:13Z</time>
      </trkpt>
      <trkpt lat="49.27808" lon="0.0746">
        <ele>50.400001525879</ele>
        <time>2022-08-30T15:14:35Z</time>
      </trkpt>
      <trkpt lat="49.2782" lon="0.0745">
        <ele>48.200000762939</ele>
        <time>2022-08-30T15:14:50Z</time>
      </trkpt>
      <trkpt lat="49.27832" lon="0.07436">
        <ele>46.599998474121</ele>
        <time>2022-08-30T15:15:03Z</time>
      </trkpt>
      <trkpt lat="49.27841" lon="0.07429">
        <ele>45.799999237061</ele>
        <time>2022-08-30T15:15:09Z</time>
      </trkpt>
      <trkpt lat="49.27854" lon="0.07415">
        <ele>44</ele>
        <time>2022-08-30T15:15:28Z</time>
      </trkpt>
      <trkpt lat="49.27872" lon="0.0739">
        <ele>41.599998474121</ele>
        <time>2022-08-30T15:15:49Z</time>
      </trkpt>
      <trkpt lat="49.27881" lon="0.07378">
        <ele>40.200000762939</ele>
        <time>2022-08-30T15:16:02Z</time>
      </trkpt>
      <trkpt lat="49.279" lon="0.07349">
        <ele>37.599998474121</ele>
        <time>2022-08-30T15:16:24Z</time>
      </trkpt>
      <trkpt lat="49.27891" lon="0.07329">
        <ele>36</ele>
        <time>2022-08-30T15:16:43Z</time>
      </trkpt>
      <trkpt lat="49.27891" lon="0.07326">
        <ele>36</ele>
        <time>2022-08-30T15:16:49Z</time>
      </trkpt>
      <trkpt lat="49.27882" lon="0.07323">
        <ele>35.799999237061</ele>
        <time>2022-08-30T15:17:15Z</time>
      </trkpt>
      <trkpt lat="49.27881" lon="0.07323">
        <ele>35.799999237061</ele>
        <time>2022-08-30T15:17:16Z</time>
      </trkpt>
      <trkpt lat="49.27879" lon="0.07322">
        <ele>35.799999237061</ele>
        <time>2022-08-30T15:17:17Z</time>
      </trkpt>
      <trkpt lat="49.27878" lon="0.07322">
        <ele>35.799999237061</ele>
        <time>2022-08-30T15:17:18Z</time>
      </trkpt>
      <trkpt lat="49.27857" lon="0.07308">
        <ele>34.400001525879</ele>
        <time>2022-08-30T15:17:41Z</time>
      </trkpt>
      <trkpt lat="49.27847" lon="0.07298">
        <ele>33.400001525879</ele>
        <time>2022-08-30T15:17:51Z</time>
      </trkpt>
      <trkpt lat="49.27829" lon="0.07269">
        <ele>32.200000762939</ele>
        <time>2022-08-30T15:18:15Z</time>
      </trkpt>
      <trkpt lat="49.27837" lon="0.07247">
        <ele>32.599998474121</ele>
        <time>2022-08-30T15:18:29Z</time>
      </trkpt>
      <trkpt lat="49.27837" lon="0.07244">
        <ele>32.599998474121</ele>
        <time>2022-08-30T15:18:30Z</time>
      </trkpt>
      <trkpt lat="49.27824" lon="0.07224">
        <ele>35</ele>
        <time>2022-08-30T15:18:48Z</time>
      </trkpt>
      <trkpt lat="49.2781" lon="0.07208">
        <ele>36.599998474121</ele>
        <time>2022-08-30T15:19:04Z</time>
      </trkpt>
      <trkpt lat="49.27808" lon="0.07207">
        <ele>37</ele>
        <time>2022-08-30T15:19:06Z</time>
      </trkpt>
      <trkpt lat="49.27807" lon="0.07205">
        <ele>37</ele>
        <time>2022-08-30T15:19:07Z</time>
      </trkpt>
      <trkpt lat="49.27802" lon="0.07198">
        <ele>37.599998474121</ele>
        <time>2022-08-30T15:19:13Z</time>
      </trkpt>
      <trkpt lat="49.27789" lon="0.07178">
        <ele>39.599998474121</ele>
        <time>2022-08-30T15:19:32Z</time>
      </trkpt>
      <trkpt lat="49.27773" lon="0.07156">
        <ele>42.599998474121</ele>
        <time>2022-08-30T15:19:54Z</time>
      </trkpt>
      <trkpt lat="49.27754" lon="0.0714">
        <ele>45.799999237061</ele>
        <time>2022-08-30T15:20:16Z</time>
      </trkpt>
      <trkpt lat="49.27749" lon="0.07137">
        <ele>46.400001525879</ele>
        <time>2022-08-30T15:20:20Z</time>
      </trkpt>
      <trkpt lat="49.27748" lon="0.07136">
        <ele>46.599998474121</ele>
        <time>2022-08-30T15:20:21Z</time>
      </trkpt>
      <trkpt lat="49.27746" lon="0.07136">
        <ele>46.799999237061</ele>
        <time>2022-08-30T15:20:22Z</time>
      </trkpt>
      <trkpt lat="49.27731" lon="0.07129">
        <ele>49.799999237061</ele>
        <time>2022-08-30T15:20:39Z</time>
      </trkpt>
      <trkpt lat="49.27714" lon="0.07119">
        <ele>51.799999237061</ele>
        <time>2022-08-30T15:20:54Z</time>
      </trkpt>
      <trkpt lat="49.27697" lon="0.07112">
        <ele>54</ele>
        <time>2022-08-30T15:21:14Z</time>
      </trkpt>
      <trkpt lat="49.27686" lon="0.07111">
        <ele>55.599998474121</ele>
        <time>2022-08-30T15:21:28Z</time>
      </trkpt>
      <trkpt lat="49.27666" lon="0.07107">
        <ele>58</ele>
        <time>2022-08-30T15:21:50Z</time>
      </trkpt>
      <trkpt lat="49.27657" lon="0.07106">
        <ele>58.599998474121</ele>
        <time>2022-08-30T15:21:58Z</time>
      </trkpt>
      <trkpt lat="49.27655" lon="0.07106">
        <ele>59</ele>
        <time>2022-08-30T15:21:59Z</time>
      </trkpt>
      <trkpt lat="49.27654" lon="0.07106">
        <ele>59</ele>
        <time>2022-08-30T15:22:00Z</time>
      </trkpt>
      <trkpt lat="49.27639" lon="0.07107">
        <ele>61</ele>
        <time>2022-08-30T15:22:12Z</time>
      </trkpt>
      <trkpt lat="49.27638" lon="0.07107">
        <ele>61</ele>
        <time>2022-08-30T15:22:13Z</time>
      </trkpt>
      <trkpt lat="49.27637" lon="0.07107">
        <ele>61.200000762939</ele>
        <time>2022-08-30T15:22:14Z</time>
      </trkpt>
      <trkpt lat="49.27622" lon="0.07109">
        <ele>63.400001525879</ele>
        <time>2022-08-30T15:22:26Z</time>
      </trkpt>
      <trkpt lat="49.2762" lon="0.07109">
        <ele>63.400001525879</ele>
        <time>2022-08-30T15:22:27Z</time>
      </trkpt>
      <trkpt lat="49.27604" lon="0.07107">
        <ele>64.800003051758</ele>
        <time>2022-08-30T15:22:40Z</time>
      </trkpt>
      <trkpt lat="49.27579" lon="0.07105">
        <ele>66.599998474121</ele>
        <time>2022-08-30T15:23:02Z</time>
      </trkpt>
      <trkpt lat="49.27555" lon="0.07094">
        <ele>69</ele>
        <time>2022-08-30T15:23:22Z</time>
      </trkpt>
      <trkpt lat="49.2753" lon="0.07083">
        <ele>70.599998474121</ele>
        <time>2022-08-30T15:23:44Z</time>
      </trkpt>
      <trkpt lat="49.27503" lon="0.07076">
        <ele>72.800003051758</ele>
        <time>2022-08-30T15:24:09Z</time>
      </trkpt>
      <trkpt lat="49.27494" lon="0.07073">
        <ele>73.800003051758</ele>
        <time>2022-08-30T15:24:21Z</time>
      </trkpt>
      <trkpt lat="49.27485" lon="0.07071">
        <ele>74.400001525879</ele>
        <time>2022-08-30T15:24:28Z</time>
      </trkpt>
      <trkpt lat="49.27482" lon="0.0707">
        <ele>74.400001525879</ele>
        <time>2022-08-30T15:24:31Z</time>
      </trkpt>
      <trkpt lat="49.27465" lon="0.07068">
        <ele>75.800003051758</ele>
        <time>2022-08-30T15:24:43Z</time>
      </trkpt>
      <trkpt lat="49.27445" lon="0.07063">
        <ele>76.599998474121</ele>
        <time>2022-08-30T15:24:58Z</time>
      </trkpt>
      <trkpt lat="49.27444" lon="0.07063">
        <ele>76.599998474121</ele>
        <time>2022-08-30T15:24:59Z</time>
      </trkpt>
      <trkpt lat="49.27425" lon="0.07059">
        <ele>78.199996948242</ele>
        <time>2022-08-30T15:25:21Z</time>
      </trkpt>
      <trkpt lat="49.27423" lon="0.07059">
        <ele>78.199996948242</ele>
        <time>2022-08-30T15:25:23Z</time>
      </trkpt>
      <trkpt lat="49.27422" lon="0.07059">
        <ele>78.199996948242</ele>
        <time>2022-08-30T15:25:24Z</time>
      </trkpt>
      <trkpt lat="49.27409" lon="0.07058">
        <ele>78.800003051758</ele>
        <time>2022-08-30T15:25:38Z</time>
      </trkpt>
      <trkpt lat="49.27383" lon="0.07055">
        <ele>80.400001525879</ele>
        <time>2022-08-30T15:26:01Z</time>
      </trkpt>
      <trkpt lat="49.27363" lon="0.07051">
        <ele>81.400001525879</ele>
        <time>2022-08-30T15:26:22Z</time>
      </trkpt>
      <trkpt lat="49.27347" lon="0.07049">
        <ele>82.400001525879</ele>
        <time>2022-08-30T15:26:37Z</time>
      </trkpt>
      <trkpt lat="49.27346" lon="0.07048">
        <ele>82.599998474121</ele>
        <time>2022-08-30T15:26:38Z</time>
      </trkpt>
      <trkpt lat="49.27341" lon="0.07047">
        <ele>82.599998474121</ele>
        <time>2022-08-30T15:26:41Z</time>
      </trkpt>
      <trkpt lat="49.27339" lon="0.07046">
        <ele>82.800003051758</ele>
        <time>2022-08-30T15:26:42Z</time>
      </trkpt>
      <trkpt lat="49.27338" lon="0.07045">
        <ele>82.800003051758</ele>
        <time>2022-08-30T15:26:43Z</time>
      </trkpt>
      <trkpt lat="49.27336" lon="0.07045">
        <ele>82.800003051758</ele>
        <time>2022-08-30T15:26:44Z</time>
      </trkpt>
      <trkpt lat="49.27334" lon="0.07044">
        <ele>83</ele>
        <time>2022-08-30T15:26:46Z</time>
      </trkpt>
      <trkpt lat="49.2733" lon="0.07043">
        <ele>83.400001525879</ele>
        <time>2022-08-30T15:26:50Z</time>
      </trkpt>
      <trkpt lat="49.2732" lon="0.07041">
        <ele>84</ele>
        <time>2022-08-30T15:26:58Z</time>
      </trkpt>
      <trkpt lat="49.27319" lon="0.07041">
        <ele>84</ele>
        <time>2022-08-30T15:26:59Z</time>
      </trkpt>
      <trkpt lat="49.27318" lon="0.07041">
        <ele>84</ele>
        <time>2022-08-30T15:27:00Z</time>
      </trkpt>
      <trkpt lat="49.27312" lon="0.07044">
        <ele>84.599998474121</ele>
        <time>2022-08-30T15:27:07Z</time>
      </trkpt>
      <trkpt lat="49.27299" lon="0.07044">
        <ele>85.400001525879</ele>
        <time>2022-08-30T15:27:20Z</time>
      </trkpt>
      <trkpt lat="49.27287" lon="0.07044">
        <ele>85.800003051758</ele>
        <time>2022-08-30T15:27:30Z</time>
      </trkpt>
      <trkpt lat="49.27275" lon="0.07046">
        <ele>86.199996948242</ele>
        <time>2022-08-30T15:27:39Z</time>
      </trkpt>
      <trkpt lat="49.27265" lon="0.0705">
        <ele>86.400001525879</ele>
        <time>2022-08-30T15:27:46Z</time>
      </trkpt>
      <trkpt lat="49.27258" lon="0.0705">
        <ele>86.599998474121</ele>
        <time>2022-08-30T15:27:54Z</time>
      </trkpt>
      <trkpt lat="49.27248" lon="0.07051">
        <ele>86.599998474121</ele>
        <time>2022-08-30T15:28:03Z</time>
      </trkpt>
      <trkpt lat="49.27235" lon="0.07055">
        <ele>87.599998474121</ele>
        <time>2022-08-30T15:28:15Z</time>
      </trkpt>
      <trkpt lat="49.27233" lon="0.07056">
        <ele>87.800003051758</ele>
        <time>2022-08-30T15:28:17Z</time>
      </trkpt>
      <trkpt lat="49.2723" lon="0.07056">
        <ele>88</ele>
        <time>2022-08-30T15:28:20Z</time>
      </trkpt>
      <trkpt lat="49.27227" lon="0.07055">
        <ele>88.199996948242</ele>
        <time>2022-08-30T15:28:24Z</time>
      </trkpt>
      <trkpt lat="49.27214" lon="0.07055">
        <ele>88.599998474121</ele>
        <time>2022-08-30T15:28:37Z</time>
      </trkpt>
      <trkpt lat="49.27199" lon="0.07053">
        <ele>89.199996948242</ele>
        <time>2022-08-30T15:28:49Z</time>
      </trkpt>
      <trkpt lat="49.27198" lon="0.07053">
        <ele>89.199996948242</ele>
        <time>2022-08-30T15:28:50Z</time>
      </trkpt>
      <trkpt lat="49.27196" lon="0.07053">
        <ele>89.199996948242</ele>
        <time>2022-08-30T15:28:52Z</time>
      </trkpt>
      <trkpt lat="49.27182" lon="0.07051">
        <ele>89.800003051758</ele>
        <time>2022-08-30T15:29:05Z</time>
      </trkpt>
      <trkpt lat="49.27176" lon="0.07051">
        <ele>89.800003051758</ele>
        <time>2022-08-30T15:29:08Z</time>
      </trkpt>
      <trkpt lat="49.27166" lon="0.07053">
        <ele>90</ele>
        <time>2022-08-30T15:29:15Z</time>
      </trkpt>
      <trkpt lat="49.27146" lon="0.07055">
        <ele>90.400001525879</ele>
        <time>2022-08-30T15:29:28Z</time>
      </trkpt>
      <trkpt lat="49.27123" lon="0.07059">
        <ele>91</ele>
        <time>2022-08-30T15:29:46Z</time>
      </trkpt>
      <trkpt lat="49.27103" lon="0.07066">
        <ele>91.400001525879</ele>
        <time>2022-08-30T15:30:02Z</time>
      </trkpt>
      <trkpt lat="49.27092" lon="0.07071">
        <ele>91.199996948242</ele>
        <time>2022-08-30T15:30:14Z</time>
      </trkpt>
      <trkpt lat="49.27065" lon="0.07083">
        <ele>91.599998474121</ele>
        <time>2022-08-30T15:30:38Z</time>
      </trkpt>
      <trkpt lat="49.27058" lon="0.07084">
        <ele>91.599998474121</ele>
        <time>2022-08-30T15:30:44Z</time>
      </trkpt>
      <trkpt lat="49.27037" lon="0.07085">
        <ele>92.400001525879</ele>
        <time>2022-08-30T15:31:03Z</time>
      </trkpt>
      <trkpt lat="49.27006" lon="0.07087">
        <ele>92.599998474121</ele>
        <time>2022-08-30T15:31:30Z</time>
      </trkpt>
      <trkpt lat="49.27002" lon="0.07086">
        <ele>92.599998474121</ele>
        <time>2022-08-30T15:31:33Z</time>
      </trkpt>
      <trkpt lat="49.26998" lon="0.07084">
        <ele>92.599998474121</ele>
        <time>2022-08-30T15:31:39Z</time>
      </trkpt>
      <trkpt lat="49.26997" lon="0.07084">
        <ele>92.599998474121</ele>
        <time>2022-08-30T15:31:40Z</time>
      </trkpt>
      <trkpt lat="49.26995" lon="0.07084">
        <ele>92.599998474121</ele>
        <time>2022-08-30T15:31:41Z</time>
      </trkpt>
      <trkpt lat="49.26994" lon="0.07084">
        <ele>92.599998474121</ele>
        <time>2022-08-30T15:31:42Z</time>
      </trkpt>
      <trkpt lat="49.26992" lon="0.07083">
        <ele>92.400001525879</ele>
        <time>2022-08-30T15:31:43Z</time>
      </trkpt>
      <trkpt lat="49.26989" lon="0.07084">
        <ele>92.400001525879</ele>
        <time>2022-08-30T15:31:45Z</time>
      </trkpt>
      <trkpt lat="49.26988" lon="0.07084">
        <ele>92.400001525879</ele>
        <time>2022-08-30T15:31:46Z</time>
      </trkpt>
      <trkpt lat="49.26967" lon="0.07087">
        <ele>92.400001525879</ele>
        <time>2022-08-30T15:32:01Z</time>
      </trkpt>
      <trkpt lat="49.26947" lon="0.07088">
        <ele>93</ele>
        <time>2022-08-30T15:32:18Z</time>
      </trkpt>
      <trkpt lat="49.2693" lon="0.07086">
        <ele>93.199996948242</ele>
        <time>2022-08-30T15:32:33Z</time>
      </trkpt>
      <trkpt lat="49.26905" lon="0.07085">
        <ele>93.599998474121</ele>
        <time>2022-08-30T15:32:53Z</time>
      </trkpt>
      <trkpt lat="49.26878" lon="0.07083">
        <ele>94.199996948242</ele>
        <time>2022-08-30T15:33:14Z</time>
      </trkpt>
      <trkpt lat="49.26855" lon="0.07085">
        <ele>94.800003051758</ele>
        <time>2022-08-30T15:33:33Z</time>
      </trkpt>
      <trkpt lat="49.26828" lon="0.07086">
        <ele>95.199996948242</ele>
        <time>2022-08-30T15:33:55Z</time>
      </trkpt>
      <trkpt lat="49.26826" lon="0.07086">
        <ele>95.199996948242</ele>
        <time>2022-08-30T15:33:56Z</time>
      </trkpt>
      <trkpt lat="49.26825" lon="0.07086">
        <ele>95.199996948242</ele>
        <time>2022-08-30T15:33:57Z</time>
      </trkpt>
      <trkpt lat="49.26823" lon="0.07087">
        <ele>95.400001525879</ele>
        <time>2022-08-30T15:33:58Z</time>
      </trkpt>
      <trkpt lat="49.26822" lon="0.07086">
        <ele>95.400001525879</ele>
        <time>2022-08-30T15:33:59Z</time>
      </trkpt>
      <trkpt lat="49.26821" lon="0.07086">
        <ele>95.400001525879</ele>
        <time>2022-08-30T15:34:00Z</time>
      </trkpt>
      <trkpt lat="49.26799" lon="0.07088">
        <ele>95.400001525879</ele>
        <time>2022-08-30T15:34:17Z</time>
      </trkpt>
      <trkpt lat="49.26795" lon="0.07089">
        <ele>95.400001525879</ele>
        <time>2022-08-30T15:34:21Z</time>
      </trkpt>
      <trkpt lat="49.26794" lon="0.07088">
        <ele>95.400001525879</ele>
        <time>2022-08-30T15:34:22Z</time>
      </trkpt>
      <trkpt lat="49.26779" lon="0.07092">
        <ele>95.199996948242</ele>
        <time>2022-08-30T15:34:38Z</time>
      </trkpt>
      <trkpt lat="49.26777" lon="0.07092">
        <ele>95.199996948242</ele>
        <time>2022-08-30T15:34:39Z</time>
      </trkpt>
      <trkpt lat="49.26775" lon="0.07092">
        <ele>95.199996948242</ele>
        <time>2022-08-30T15:34:40Z</time>
      </trkpt>
      <trkpt lat="49.26763" lon="0.07095">
        <ele>95.400001525879</ele>
        <time>2022-08-30T15:34:55Z</time>
      </trkpt>
      <trkpt lat="49.26755" lon="0.07087">
        <ele>95.400001525879</ele>
        <time>2022-08-30T15:35:05Z</time>
      </trkpt>
      <trkpt lat="49.26752" lon="0.07056">
        <ele>96</ele>
        <time>2022-08-30T15:35:27Z</time>
      </trkpt>
      <trkpt lat="49.26752" lon="0.07003">
        <ele>97</ele>
        <time>2022-08-30T15:35:55Z</time>
      </trkpt>
      <trkpt lat="49.26753" lon="0.06995">
        <ele>97.199996948242</ele>
        <time>2022-08-30T15:35:58Z</time>
      </trkpt>
      <trkpt lat="49.26753" lon="0.06993">
        <ele>97.199996948242</ele>
        <time>2022-08-30T15:35:59Z</time>
      </trkpt>
      <trkpt lat="49.26751" lon="0.06974">
        <ele>97.199996948242</ele>
        <time>2022-08-30T15:36:10Z</time>
      </trkpt>
      <trkpt lat="49.26751" lon="0.06962">
        <ele>97.199996948242</ele>
        <time>2022-08-30T15:36:16Z</time>
      </trkpt>
      <trkpt lat="49.2675" lon="0.0693">
        <ele>97</ele>
        <time>2022-08-30T15:36:32Z</time>
      </trkpt>
      <trkpt lat="49.26748" lon="0.0691">
        <ele>97.199996948242</ele>
        <time>2022-08-30T15:36:42Z</time>
      </trkpt>
      <trkpt lat="49.2675" lon="0.06908">
        <ele>97.199996948242</ele>
        <time>2022-08-30T15:36:43Z</time>
      </trkpt>
      <trkpt lat="49.26763" lon="0.0689">
        <ele>97.199996948242</ele>
        <time>2022-08-30T15:36:59Z</time>
      </trkpt>
      <trkpt lat="49.26766" lon="0.0689">
        <ele>97</ele>
        <time>2022-08-30T15:37:01Z</time>
      </trkpt>
      <trkpt lat="49.26767" lon="0.06889">
        <ele>97</ele>
        <time>2022-08-30T15:37:02Z</time>
      </trkpt>
      <trkpt lat="49.26768" lon="0.06888">
        <ele>97</ele>
        <time>2022-08-30T15:37:03Z</time>
      </trkpt>
      <trkpt lat="49.2677" lon="0.06887">
        <ele>97</ele>
        <time>2022-08-30T15:37:04Z</time>
      </trkpt>
      <trkpt lat="49.26771" lon="0.06886">
        <ele>97</ele>
        <time>2022-08-30T15:37:05Z</time>
      </trkpt>
      <trkpt lat="49.26781" lon="0.06878">
        <ele>96.800003051758</ele>
        <time>2022-08-30T15:37:15Z</time>
      </trkpt>
      <trkpt lat="49.26782" lon="0.06877">
        <ele>96.800003051758</ele>
        <time>2022-08-30T15:37:16Z</time>
      </trkpt>
      <trkpt lat="49.26784" lon="0.06876">
        <ele>96.800003051758</ele>
        <time>2022-08-30T15:37:17Z</time>
      </trkpt>
      <trkpt lat="49.26808" lon="0.06855">
        <ele>96.400001525879</ele>
        <time>2022-08-30T15:37:42Z</time>
      </trkpt>
      <trkpt lat="49.26822" lon="0.06847">
        <ele>96</ele>
        <time>2022-08-30T15:37:54Z</time>
      </trkpt>
      <trkpt lat="49.26845" lon="0.06833">
        <ele>95.599998474121</ele>
        <time>2022-08-30T15:38:14Z</time>
      </trkpt>
      <trkpt lat="49.26867" lon="0.06816">
        <ele>95.599998474121</ele>
        <time>2022-08-30T15:38:37Z</time>
      </trkpt>
      <trkpt lat="49.26886" lon="0.06803">
        <ele>94.800003051758</ele>
        <time>2022-08-30T15:38:53Z</time>
      </trkpt>
      <trkpt lat="49.26891" lon="0.06801">
        <ele>94.599998474121</ele>
        <time>2022-08-30T15:38:58Z</time>
      </trkpt>
      <trkpt lat="49.26893" lon="0.068">
        <ele>94.400001525879</ele>
        <time>2022-08-30T15:38:59Z</time>
      </trkpt>
      <trkpt lat="49.26894" lon="0.068">
        <ele>94.400001525879</ele>
        <time>2022-08-30T15:39:00Z</time>
      </trkpt>
      <trkpt lat="49.26895" lon="0.06799">
        <ele>94.400001525879</ele>
        <time>2022-08-30T15:39:01Z</time>
      </trkpt>
      <trkpt lat="49.26896" lon="0.06798">
        <ele>94.400001525879</ele>
        <time>2022-08-30T15:39:02Z</time>
      </trkpt>
      <trkpt lat="49.26921" lon="0.06779">
        <ele>93.599998474121</ele>
        <time>2022-08-30T15:39:25Z</time>
      </trkpt>
      <trkpt lat="49.26952" lon="0.06755">
        <ele>92.400001525879</ele>
        <time>2022-08-30T15:39:52Z</time>
      </trkpt>
      <trkpt lat="49.26978" lon="0.0674">
        <ele>91.400001525879</ele>
        <time>2022-08-30T15:40:15Z</time>
      </trkpt>
      <trkpt lat="49.27002" lon="0.06726">
        <ele>90.199996948242</ele>
        <time>2022-08-30T15:40:37Z</time>
      </trkpt>
      <trkpt lat="49.27018" lon="0.06706">
        <ele>88.199996948242</ele>
        <time>2022-08-30T15:40:58Z</time>
      </trkpt>
      <trkpt lat="49.27037" lon="0.06691">
        <ele>85</ele>
        <time>2022-08-30T15:41:21Z</time>
      </trkpt>
      <trkpt lat="49.27059" lon="0.06675">
        <ele>82.199996948242</ele>
        <time>2022-08-30T15:41:42Z</time>
      </trkpt>
      <trkpt lat="49.27076" lon="0.06684">
        <ele>81.199996948242</ele>
        <time>2022-08-30T15:42:00Z</time>
      </trkpt>
      <trkpt lat="49.27087" lon="0.06692">
        <ele>80.800003051758</ele>
        <time>2022-08-30T15:42:14Z</time>
      </trkpt>
      <trkpt lat="49.27118" lon="0.06717">
        <ele>79.199996948242</ele>
        <time>2022-08-30T15:42:40Z</time>
      </trkpt>
      <trkpt lat="49.27128" lon="0.06725">
        <ele>78.800003051758</ele>
        <time>2022-08-30T15:42:49Z</time>
      </trkpt>
      <trkpt lat="49.27145" lon="0.06743">
        <ele>77.800003051758</ele>
        <time>2022-08-30T15:43:07Z</time>
      </trkpt>
      <trkpt lat="49.2716" lon="0.06754">
        <ele>78.199996948242</ele>
        <time>2022-08-30T15:43:21Z</time>
      </trkpt>
      <trkpt lat="49.27188" lon="0.06772">
        <ele>78.400001525879</ele>
        <time>2022-08-30T15:43:48Z</time>
      </trkpt>
      <trkpt lat="49.27195" lon="0.06773">
        <ele>78.400001525879</ele>
        <time>2022-08-30T15:43:53Z</time>
      </trkpt>
      <trkpt lat="49.27198" lon="0.06773">
        <ele>78.199996948242</ele>
        <time>2022-08-30T15:43:54Z</time>
      </trkpt>
      <trkpt lat="49.272" lon="0.06773">
        <ele>78.199996948242</ele>
        <time>2022-08-30T15:43:55Z</time>
      </trkpt>
      <trkpt lat="49.27202" lon="0.06774">
        <ele>78.199996948242</ele>
        <time>2022-08-30T15:43:56Z</time>
      </trkpt>
      <trkpt lat="49.27212" lon="0.06781">
        <ele>77.400001525879</ele>
        <time>2022-08-30T15:44:08Z</time>
      </trkpt>
      <trkpt lat="49.2723" lon="0.0678">
        <ele>74.400001525879</ele>
        <time>2022-08-30T15:44:29Z</time>
      </trkpt>
      <trkpt lat="49.27243" lon="0.06779">
        <ele>71.400001525879</ele>
        <time>2022-08-30T15:44:45Z</time>
      </trkpt>
      <trkpt lat="49.2726" lon="0.0678">
        <ele>68.199996948242</ele>
        <time>2022-08-30T15:45:02Z</time>
      </trkpt>
      <trkpt lat="49.27281" lon="0.06783">
        <ele>65.199996948242</ele>
        <time>2022-08-30T15:45:24Z</time>
      </trkpt>
      <trkpt lat="49.27299" lon="0.06787">
        <ele>62.599998474121</ele>
        <time>2022-08-30T15:45:46Z</time>
      </trkpt>
      <trkpt lat="49.27302" lon="0.06787">
        <ele>61</ele>
        <time>2022-08-30T15:45:55Z</time>
      </trkpt>
      <trkpt lat="49.27303" lon="0.06787">
        <ele>60.799999237061</ele>
        <time>2022-08-30T15:45:56Z</time>
      </trkpt>
      <trkpt lat="49.27305" lon="0.0679">
        <ele>60.200000762939</ele>
        <time>2022-08-30T15:45:59Z</time>
      </trkpt>
      <trkpt lat="49.27312" lon="0.06782">
        <ele>58.599998474121</ele>
        <time>2022-08-30T15:46:19Z</time>
      </trkpt>
      <trkpt lat="49.27308" lon="0.0676">
        <ele>55.599998474121</ele>
        <time>2022-08-30T15:46:43Z</time>
      </trkpt>
      <trkpt lat="49.27305" lon="0.0674">
        <ele>53.599998474121</ele>
        <time>2022-08-30T15:47:10Z</time>
      </trkpt>
      <trkpt lat="49.27306" lon="0.06745">
        <ele>53.400001525879</ele>
        <time>2022-08-30T15:47:26Z</time>
      </trkpt>
      <trkpt lat="49.27304" lon="0.06739">
        <ele>54</ele>
        <time>2022-08-30T15:48:13Z</time>
      </trkpt>
      <trkpt lat="49.27306" lon="0.06709">
        <ele>55.200000762939</ele>
        <time>2022-08-30T15:48:35Z</time>
      </trkpt>
      <trkpt lat="49.2731" lon="0.06702">
        <ele>56.799999237061</ele>
        <time>2022-08-30T15:48:44Z</time>
      </trkpt>
      <trkpt lat="49.27316" lon="0.06691">
        <ele>59</ele>
        <time>2022-08-30T15:48:57Z</time>
      </trkpt>
      <trkpt lat="49.2731" lon="0.06683">
        <ele>62.200000762939</ele>
        <time>2022-08-30T15:49:15Z</time>
      </trkpt>
      <trkpt lat="49.27317" lon="0.06668">
        <ele>65.199996948242</ele>
        <time>2022-08-30T15:49:31Z</time>
      </trkpt>
      <trkpt lat="49.27325" lon="0.06651">
        <ele>68.599998474121</ele>
        <time>2022-08-30T15:49:47Z</time>
      </trkpt>
      <trkpt lat="49.27335" lon="0.06638">
        <ele>71.599998474121</ele>
        <time>2022-08-30T15:50:01Z</time>
      </trkpt>
      <trkpt lat="49.27341" lon="0.06629">
        <ele>74.599998474121</ele>
        <time>2022-08-30T15:50:18Z</time>
      </trkpt>
      <trkpt lat="49.27353" lon="0.06612">
        <ele>77.800003051758</ele>
        <time>2022-08-30T15:50:34Z</time>
      </trkpt>
      <trkpt lat="49.27375" lon="0.06581">
        <ele>81.400001525879</ele>
        <time>2022-08-30T15:50:59Z</time>
      </trkpt>
      <trkpt lat="49.27375" lon="0.06584">
        <ele>82.199996948242</ele>
        <time>2022-08-30T15:51:25Z</time>
      </trkpt>
      <trkpt lat="49.27386" lon="0.06563">
        <ele>82.800003051758</ele>
        <time>2022-08-30T15:51:46Z</time>
      </trkpt>
      <trkpt lat="49.2738" lon="0.06548">
        <ele>84.199996948242</ele>
        <time>2022-08-30T15:52:08Z</time>
      </trkpt>
      <trkpt lat="49.27376" lon="0.06545">
        <ele>84.400001525879</ele>
        <time>2022-08-30T15:52:13Z</time>
      </trkpt>
      <trkpt lat="49.27378" lon="0.06523">
        <ele>85.400001525879</ele>
        <time>2022-08-30T15:52:28Z</time>
      </trkpt>
      <trkpt lat="49.27379" lon="0.0652">
        <ele>85.400001525879</ele>
        <time>2022-08-30T15:52:30Z</time>
      </trkpt>
      <trkpt lat="49.27394" lon="0.06482">
        <ele>86.400001525879</ele>
        <time>2022-08-30T15:52:54Z</time>
      </trkpt>
      <trkpt lat="49.27408" lon="0.06447">
        <ele>86</ele>
        <time>2022-08-30T15:53:16Z</time>
      </trkpt>
      <trkpt lat="49.27394" lon="0.06433">
        <ele>85</ele>
        <time>2022-08-30T15:53:32Z</time>
      </trkpt>
      <trkpt lat="49.27374" lon="0.06421">
        <ele>85.199996948242</ele>
        <time>2022-08-30T15:53:51Z</time>
      </trkpt>
      <trkpt lat="49.27349" lon="0.06407">
        <ele>86</ele>
        <time>2022-08-30T15:54:14Z</time>
      </trkpt>
      <trkpt lat="49.27316" lon="0.06389">
        <ele>87</ele>
        <time>2022-08-30T15:54:44Z</time>
      </trkpt>
      <trkpt lat="49.27296" lon="0.06381">
        <ele>87.599998474121</ele>
        <time>2022-08-30T15:54:59Z</time>
      </trkpt>
      <trkpt lat="49.27288" lon="0.06369">
        <ele>88.199996948242</ele>
        <time>2022-08-30T15:55:23Z</time>
      </trkpt>
      <trkpt lat="49.27285" lon="0.06369">
        <ele>88.199996948242</ele>
        <time>2022-08-30T15:55:34Z</time>
      </trkpt>
      <trkpt lat="49.27277" lon="0.06372">
        <ele>88.199996948242</ele>
        <time>2022-08-30T15:55:44Z</time>
      </trkpt>
      <trkpt lat="49.27269" lon="0.06369">
        <ele>88.199996948242</ele>
        <time>2022-08-30T15:55:49Z</time>
      </trkpt>
      <trkpt lat="49.27247" lon="0.06367">
        <ele>89</ele>
        <time>2022-08-30T15:56:09Z</time>
      </trkpt>
      <trkpt lat="49.27215" lon="0.06369">
        <ele>89.800003051758</ele>
        <time>2022-08-30T15:56:31Z</time>
      </trkpt>
      <trkpt lat="49.27213" lon="0.06369">
        <ele>89.800003051758</ele>
        <time>2022-08-30T15:56:33Z</time>
      </trkpt>
      <trkpt lat="49.27197" lon="0.06366">
        <ele>90</ele>
        <time>2022-08-30T15:56:47Z</time>
      </trkpt>
      <trkpt lat="49.27189" lon="0.06365">
        <ele>90.199996948242</ele>
        <time>2022-08-30T15:56:53Z</time>
      </trkpt>
      <trkpt lat="49.27166" lon="0.06359">
        <ele>90.199996948242</ele>
        <time>2022-08-30T15:57:09Z</time>
      </trkpt>
      <trkpt lat="49.27152" lon="0.06353">
        <ele>90.599998474121</ele>
        <time>2022-08-30T15:57:19Z</time>
      </trkpt>
      <trkpt lat="49.27147" lon="0.06352">
        <ele>90.599998474121</ele>
        <time>2022-08-30T15:57:23Z</time>
      </trkpt>
      <trkpt lat="49.2713" lon="0.06345">
        <ele>91</ele>
        <time>2022-08-30T15:57:39Z</time>
      </trkpt>
      <trkpt lat="49.27117" lon="0.06341">
        <ele>91.199996948242</ele>
        <time>2022-08-30T15:57:47Z</time>
      </trkpt>
      <trkpt lat="49.27104" lon="0.0633">
        <ele>91.400001525879</ele>
        <time>2022-08-30T15:57:57Z</time>
      </trkpt>
      <trkpt lat="49.27111" lon="0.063">
        <ele>92</ele>
        <time>2022-08-30T15:58:13Z</time>
      </trkpt>
      <trkpt lat="49.27118" lon="0.06274">
        <ele>92.199996948242</ele>
        <time>2022-08-30T15:58:28Z</time>
      </trkpt>
      <trkpt lat="49.27126" lon="0.0625">
        <ele>92.800003051758</ele>
        <time>2022-08-30T15:58:47Z</time>
      </trkpt>
      <trkpt lat="49.2714" lon="0.06209">
        <ele>92.199996948242</ele>
        <time>2022-08-30T15:59:11Z</time>
      </trkpt>
      <trkpt lat="49.27155" lon="0.0617">
        <ele>89.800003051758</ele>
        <time>2022-08-30T15:59:37Z</time>
      </trkpt>
      <trkpt lat="49.27163" lon="0.06134">
        <ele>86.599998474121</ele>
        <time>2022-08-30T15:59:56Z</time>
      </trkpt>
      <trkpt lat="49.27165" lon="0.06128">
        <ele>86</ele>
        <time>2022-08-30T15:59:59Z</time>
      </trkpt>
      <trkpt lat="49.27178" lon="0.0608">
        <ele>85.199996948242</ele>
        <time>2022-08-30T16:00:24Z</time>
      </trkpt>
      <trkpt lat="49.27183" lon="0.06064">
        <ele>85.800003051758</ele>
        <time>2022-08-30T16:00:34Z</time>
      </trkpt>
      <trkpt lat="49.27187" lon="0.06052">
        <ele>86.800003051758</ele>
        <time>2022-08-30T16:00:41Z</time>
      </trkpt>
      <trkpt lat="49.27188" lon="0.06038">
        <ele>88</ele>
        <time>2022-08-30T16:00:51Z</time>
      </trkpt>
      <trkpt lat="49.27189" lon="0.06029">
        <ele>88.800003051758</ele>
        <time>2022-08-30T16:00:56Z</time>
      </trkpt>
      <trkpt lat="49.2719" lon="0.06023">
        <ele>89.400001525879</ele>
        <time>2022-08-30T16:00:59Z</time>
      </trkpt>
      <trkpt lat="49.27193" lon="0.06015">
        <ele>89.800003051758</ele>
        <time>2022-08-30T16:01:03Z</time>
      </trkpt>
      <trkpt lat="49.27195" lon="0.06004">
        <ele>90.400001525879</ele>
        <time>2022-08-30T16:01:08Z</time>
      </trkpt>
      <trkpt lat="49.27196" lon="0.05994">
        <ele>91.199996948242</ele>
        <time>2022-08-30T16:01:13Z</time>
      </trkpt>
      <trkpt lat="49.27197" lon="0.05982">
        <ele>92</ele>
        <time>2022-08-30T16:01:19Z</time>
      </trkpt>
      <trkpt lat="49.27197" lon="0.05977">
        <ele>92.199996948242</ele>
        <time>2022-08-30T16:01:22Z</time>
      </trkpt>
      <trkpt lat="49.27195" lon="0.05964">
        <ele>92.599998474121</ele>
        <time>2022-08-30T16:01:29Z</time>
      </trkpt>
      <trkpt lat="49.27191" lon="0.05956">
        <ele>93.199996948242</ele>
        <time>2022-08-30T16:01:33Z</time>
      </trkpt>
      <trkpt lat="49.27191" lon="0.05952">
        <ele>93.400001525879</ele>
        <time>2022-08-30T16:01:35Z</time>
      </trkpt>
      <trkpt lat="49.27192" lon="0.05949">
        <ele>93.599998474121</ele>
        <time>2022-08-30T16:01:37Z</time>
      </trkpt>
      <trkpt lat="49.27195" lon="0.05928">
        <ele>94.400001525879</ele>
        <time>2022-08-30T16:01:49Z</time>
      </trkpt>
      <trkpt lat="49.27202" lon="0.05901">
        <ele>95.599998474121</ele>
        <time>2022-08-30T16:02:05Z</time>
      </trkpt>
      <trkpt lat="49.27206" lon="0.0588">
        <ele>96.199996948242</ele>
        <time>2022-08-30T16:02:18Z</time>
      </trkpt>
      <trkpt lat="49.27208" lon="0.05872">
        <ele>96.400001525879</ele>
        <time>2022-08-30T16:02:22Z</time>
      </trkpt>
      <trkpt lat="49.27216" lon="0.05854">
        <ele>96.800003051758</ele>
        <time>2022-08-30T16:02:32Z</time>
      </trkpt>
      <trkpt lat="49.27218" lon="0.05847">
        <ele>96.800003051758</ele>
        <time>2022-08-30T16:02:36Z</time>
      </trkpt>
      <trkpt lat="49.2722" lon="0.0583">
        <ele>97</ele>
        <time>2022-08-30T16:02:44Z</time>
      </trkpt>
      <trkpt lat="49.27228" lon="0.05809">
        <ele>97.199996948242</ele>
        <time>2022-08-30T16:02:57Z</time>
      </trkpt>
      <trkpt lat="49.27246" lon="0.05756">
        <ele>98</ele>
        <time>2022-08-30T16:03:25Z</time>
      </trkpt>
      <trkpt lat="49.27255" lon="0.05729">
        <ele>98.199996948242</ele>
        <time>2022-08-30T16:03:39Z</time>
      </trkpt>
      <trkpt lat="49.27261" lon="0.05698">
        <ele>98.599998474121</ele>
        <time>2022-08-30T16:03:52Z</time>
      </trkpt>
      <trkpt lat="49.27258" lon="0.05678">
        <ele>99</ele>
        <time>2022-08-30T16:04:03Z</time>
      </trkpt>
      <trkpt lat="49.27243" lon="0.05655">
        <ele>99.400001525879</ele>
        <time>2022-08-30T16:04:20Z</time>
      </trkpt>
      <trkpt lat="49.27242" lon="0.05648">
        <ele>99.400001525879</ele>
        <time>2022-08-30T16:04:25Z</time>
      </trkpt>
      <trkpt lat="49.27248" lon="0.05621">
        <ele>99.599998474121</ele>
        <time>2022-08-30T16:04:40Z</time>
      </trkpt>
      <trkpt lat="49.27258" lon="0.05596">
        <ele>100</ele>
        <time>2022-08-30T16:04:56Z</time>
      </trkpt>
      <trkpt lat="49.2727" lon="0.05566">
        <ele>100</ele>
        <time>2022-08-30T16:05:14Z</time>
      </trkpt>
      <trkpt lat="49.2727" lon="0.05565">
        <ele>100.19999694824</ele>
        <time>2022-08-30T16:05:15Z</time>
      </trkpt>
      <trkpt lat="49.27279" lon="0.05542">
        <ele>100.59999847412</ele>
        <time>2022-08-30T16:05:29Z</time>
      </trkpt>
      <trkpt lat="49.27275" lon="0.0551">
        <ele>101.19999694824</ele>
        <time>2022-08-30T16:05:45Z</time>
      </trkpt>
      <trkpt lat="49.27276" lon="0.05506">
        <ele>101.40000152588</ele>
        <time>2022-08-30T16:05:47Z</time>
      </trkpt>
      <trkpt lat="49.27277" lon="0.05505">
        <ele>101.40000152588</ele>
        <time>2022-08-30T16:05:48Z</time>
      </trkpt>
      <trkpt lat="49.27278" lon="0.05504">
        <ele>101.40000152588</ele>
        <time>2022-08-30T16:05:49Z</time>
      </trkpt>
      <trkpt lat="49.27288" lon="0.05479">
        <ele>101.19999694824</ele>
        <time>2022-08-30T16:06:05Z</time>
      </trkpt>
      <trkpt lat="49.27297" lon="0.05475">
        <ele>101</ele>
        <time>2022-08-30T16:06:13Z</time>
      </trkpt>
      <trkpt lat="49.27298" lon="0.05475">
        <ele>101</ele>
        <time>2022-08-30T16:06:14Z</time>
      </trkpt>
      <trkpt lat="49.273" lon="0.05475">
        <ele>101</ele>
        <time>2022-08-30T16:06:15Z</time>
      </trkpt>
      <trkpt lat="49.27301" lon="0.05475">
        <ele>100.80000305176</ele>
        <time>2022-08-30T16:06:16Z</time>
      </trkpt>
      <trkpt lat="49.27302" lon="0.05475">
        <ele>100.80000305176</ele>
        <time>2022-08-30T16:06:17Z</time>
      </trkpt>
      <trkpt lat="49.27303" lon="0.05475">
        <ele>100.80000305176</ele>
        <time>2022-08-30T16:06:18Z</time>
      </trkpt>
      <trkpt lat="49.27313" lon="0.05479">
        <ele>100.59999847412</ele>
        <time>2022-08-30T16:06:27Z</time>
      </trkpt>
      <trkpt lat="49.27315" lon="0.0548">
        <ele>100.59999847412</ele>
        <time>2022-08-30T16:06:28Z</time>
      </trkpt>
      <trkpt lat="49.27316" lon="0.05481">
        <ele>100.40000152588</ele>
        <time>2022-08-30T16:06:29Z</time>
      </trkpt>
      <trkpt lat="49.27317" lon="0.05481">
        <ele>100.40000152588</ele>
        <time>2022-08-30T16:06:30Z</time>
      </trkpt>
      <trkpt lat="49.27318" lon="0.05482">
        <ele>100.40000152588</ele>
        <time>2022-08-30T16:06:31Z</time>
      </trkpt>
      <trkpt lat="49.27319" lon="0.05482">
        <ele>100.40000152588</ele>
        <time>2022-08-30T16:06:32Z</time>
      </trkpt>
      <trkpt lat="49.27328" lon="0.05494">
        <ele>100.59999847412</ele>
        <time>2022-08-30T16:06:42Z</time>
      </trkpt>
      <trkpt lat="49.27329" lon="0.05496">
        <ele>100.59999847412</ele>
        <time>2022-08-30T16:06:43Z</time>
      </trkpt>
      <trkpt lat="49.2733" lon="0.05498">
        <ele>100.59999847412</ele>
        <time>2022-08-30T16:06:44Z</time>
      </trkpt>
      <trkpt lat="49.27331" lon="0.05499">
        <ele>100.59999847412</ele>
        <time>2022-08-30T16:06:45Z</time>
      </trkpt>
      <trkpt lat="49.27332" lon="0.055">
        <ele>100.59999847412</ele>
        <time>2022-08-30T16:06:46Z</time>
      </trkpt>
      <trkpt lat="49.27333" lon="0.05502">
        <ele>100.59999847412</ele>
        <time>2022-08-30T16:06:47Z</time>
      </trkpt>
      <trkpt lat="49.27347" lon="0.05524">
        <ele>100.40000152588</ele>
        <time>2022-08-30T16:07:03Z</time>
      </trkpt>
      <trkpt lat="49.27354" lon="0.05532">
        <ele>100.59999847412</ele>
        <time>2022-08-30T16:07:10Z</time>
      </trkpt>
    </trkseg>
  </trk>
</gpx>